Observation data for Fort McKavett on 09/12/2017      Previous  Date       Current Mesonet Observations  Soil Data  Daily Summary Page  Observations in Plain Language
KMC1 120500Z 23002KT 16/11 A3008 RMK A01 T01550110  RH  075%=      5-min Rain = 0
KMC1 120501Z 23002KT 16/11 A3008 RMK A01 T01550110  RH  075%=      5-min Rain = 0
KMC1 120502Z 23002KT 16/11 A3008 RMK A01 T01550111  RH  075%=      5-min Rain = 0
KMC1 120503Z 23002KT 15/11 A3008 RMK A01 T01540111  RH  075%=      5-min Rain = 0
KMC1 120504Z 22002KT 15/11 A3008 RMK A01 T01530110  RH  075%=      5-min Rain = 0
KMC1 120505Z 23002KT 15/11 A3008 RMK A01 T01530110  RH  076%=      5-min Rain = 0
KMC1 120506Z 22002KT 15/11 A3008 RMK A01 T01530111  RH  076%=      5-min Rain = 0
KMC1 120507Z 21002KT 15/11 A3008 RMK A01 T01530111  RH  076%=      5-min Rain = 0
KMC1 120508Z 21003KT 15/11 A3008 RMK A01 T01520110  RH  076%=      5-min Rain = 0
KMC1 120509Z 21003KT 15/11 A3008 RMK A01 T01520110  RH  076%=      5-min Rain = 0
KMC1 120510Z 21003KT 15/11 A3008 RMK A01 T01520110  RH  076%=      5-min Rain = 0
KMC1 120511Z 21003KT 15/11 A3008 RMK A01 T01520109  RH  076%=      5-min Rain = 0
KMC1 120512Z 21003KT 15/11 A3008 RMK A01 T01520109  RH  076%=      5-min Rain = 0
KMC1 120513Z 21003KT 15/11 A3008 RMK A01 T01510108  RH  075%=      5-min Rain = 0
KMC1 120514Z 21003KT 15/11 A3008 RMK A01 T01510108  RH  075%=      5-min Rain = 0
KMC1 120515Z 21003KT 15/11 A3008 RMK A01 T01510108  RH  075%=      5-min Rain = 0
KMC1 120516Z 21003KT 15/11 A3008 RMK A01 T01510108  RH  075%=      5-min Rain = 0
KMC1 120517Z 21003KT 15/11 A3008 RMK A01 T01520108  RH  075%=      5-min Rain = 0
KMC1 120518Z 21003KT 15/11 A3008 RMK A01 T01510108  RH  075%=      5-min Rain = 0
KMC1 120519Z 21003KT 15/11 A3008 RMK A01 T01510109  RH  076%=      5-min Rain = 0
KMC1 120520Z 21003KT 15/11 A3008 RMK A01 T01510109  RH  076%=      5-min Rain = 0
KMC1 120521Z 20004KT 15/11 A3008 RMK A01 T01510108  RH  076%=      5-min Rain = 0
KMC1 120522Z 20004KT 15/11 A3008 RMK A01 T01510108  RH  076%=      5-min Rain = 0
KMC1 120523Z 20004KT 15/11 A3008 RMK A01 T01500107  RH  076%=      5-min Rain = 0
KMC1 120524Z 20004KT 15/11 A3008 RMK A01 T01510108  RH  076%=      5-min Rain = 0
KMC1 120525Z 21004KT 15/11 A3008 RMK A01 T01500107  RH  076%=      5-min Rain = 0
KMC1 120526Z 21004KT 15/11 A3008 RMK A01 T01500107  RH  076%=      5-min Rain = 0
KMC1 120527Z 21004KT 15/11 A3008 RMK A01 T01500107  RH  075%=      5-min Rain = 0
KMC1 120528Z 21003KT 15/11 A3008 RMK A01 T01500107  RH  076%=      5-min Rain = 0
KMC1 120529Z 21003KT 15/11 A3008 RMK A01 T01500107  RH  076%=      5-min Rain = 0
KMC1 120530Z 21003KT 15/11 A3008 RMK A01 T01490108  RH  076%=      5-min Rain = 0
KMC1 120531Z 21003KT 15/11 A3008 RMK A01 T01480107  RH  076%=      5-min Rain = 0
KMC1 120532Z 22003KT 15/11 A3008 RMK A01 T01470107  RH  077%=      5-min Rain = 0
KMC1 120533Z 21003KT 15/11 A3008 RMK A01 T01470107  RH  077%=      5-min Rain = 0
KMC1 120534Z 21003KT 15/11 A3008 RMK A01 T01460107  RH  077%=      5-min Rain = 0
KMC1 120535Z 21003KT 15/11 A3008 RMK A01 T01450107  RH  078%=      5-min Rain = 0
KMC1 120536Z 21003KT 15/11 A3008 RMK A01 T01450107  RH  078%=      5-min Rain = 0
KMC1 120537Z 21004KT 15/11 A3008 RMK A01 T01450107  RH  078%=      5-min Rain = 0
KMC1 120538Z 22004KT 14/11 A3008 RMK A01 T01440107  RH  078%=      5-min Rain = 0
KMC1 120539Z 21004KT 14/11 A3008 RMK A01 T01440106  RH  078%=      5-min Rain = 0
KMC1 120540Z 22004KT 14/11 A3008 RMK A01 T01440106  RH  078%=      5-min Rain = 0
KMC1 120541Z 21003KT 14/11 A3008 RMK A01 T01440106  RH  078%=      5-min Rain = 0
KMC1 120542Z 21004KT 14/11 A3007 RMK A01 T01440106  RH  078%=      5-min Rain = 0
KMC1 120543Z 22004KT 14/11 A3007 RMK A01 T01430106  RH  078%=      5-min Rain = 0
KMC1 120544Z 22004KT 14/11 A3007 RMK A01 T01430105  RH  078%=      5-min Rain = 0
KMC1 120545Z 22004KT 14/10 A3007 RMK A01 T01420104  RH  078%=      5-min Rain = 0
KMC1 120546Z 22004KT 14/10 A3007 RMK A01 T01420104  RH  078%=      5-min Rain = 0
KMC1 120547Z 21004KT 14/10 A3007 RMK A01 T01420103  RH  077%=      5-min Rain = 0
KMC1 120548Z 22003KT 14/10 A3007 RMK A01 T01430103  RH  077%=      5-min Rain = 0
KMC1 120549Z 21003KT 14/10 A3007 RMK A01 T01430103  RH  077%=      5-min Rain = 0
KMC1 120550Z 21003KT 14/10 A3007 RMK A01 T01430103  RH  077%=      5-min Rain = 0
KMC1 120551Z 21003KT 14/10 A3007 RMK A01 T01440104  RH  077%=      5-min Rain = 0
KMC1 120552Z 21003KT 14/10 A3007 RMK A01 T01440104  RH  077%=      5-min Rain = 0
KMC1 120553Z 21003KT 14/10 A3007 RMK A01 T01440104  RH  077%=      5-min Rain = 0
KMC1 120554Z 21003KT 14/10 A3007 RMK A01 T01440104  RH  077%=      5-min Rain = 0
KMC1 120555Z 21003KT 14/10 A3007 RMK A01 T01440103  RH  077%=      5-min Rain = 0
KMC1 120556Z 21002KT 14/10 A3007 RMK A01 T01430103  RH  077%=      5-min Rain = 0
KMC1 120557Z 21002KT 14/10 A3007 RMK A01 T01440104  RH  077%=      5-min Rain = 0
KMC1 120558Z 20002KT 15/10 A3007 RMK A01 T01450104  RH  076%=      5-min Rain = 0
KMC1 120559Z 21002KT 15/10 A3007 RMK A01 T01460104  RH  076%=      5-min Rain = 0
KMC1 120600Z 22002KT 15/10 A3007 RMK A01 T01470104  RH  076%=      5-min Rain = 0
KMC1 120601Z 23002KT 15/10 A3007 RMK A01 T01470104  RH  076%=      5-min Rain = 0
KMC1 120602Z 22002KT 15/10 A3007 RMK A01 T01470104  RH  076%=      5-min Rain = 0
KMC1 120603Z 22002KT 15/11 A3007 RMK A01 T01480105  RH  075%=      5-min Rain = 0
KMC1 120604Z 22002KT 15/10 A3007 RMK A01 T01480104  RH  075%=      5-min Rain = 0
KMC1 120605Z 22002KT 15/10 A3007 RMK A01 T01480104  RH  075%=      5-min Rain = 0
KMC1 120606Z 22002KT 15/10 A3007 RMK A01 T01480104  RH  075%=      5-min Rain = 0
KMC1 120607Z 22002KT 15/10 A3007 RMK A01 T01490104  RH  075%=      5-min Rain = 0
KMC1 120608Z 23001KT 15/10 A3007 RMK A01 T01490104  RH  075%=      5-min Rain = 0
KMC1 120609Z 23001KT 15/10 A3007 RMK A01 T01490104  RH  074%=      5-min Rain = 0
KMC1 120610Z 23001KT 15/10 A3007 RMK A01 T01490104  RH  074%=      5-min Rain = 0
KMC1 120611Z 22001KT 15/10 A3007 RMK A01 T01500104  RH  074%=      5-min Rain = 0
KMC1 120612Z 23001KT 15/10 A3007 RMK A01 T01500104  RH  074%=      5-min Rain = 0
KMC1 120613Z 23001KT 15/10 A3006 RMK A01 T01500104  RH  074%=      5-min Rain = 0
KMC1 120614Z 23002KT 15/10 A3006 RMK A01 T01500104  RH  074%=      5-min Rain = 0
KMC1 120615Z 23002KT 15/10 A3006 RMK A01 T01490104  RH  074%=      5-min Rain = 0
KMC1 120616Z 22002KT 15/11 A3006 RMK A01 T01490105  RH  075%=      5-min Rain = 0
KMC1 120617Z 23002KT 15/11 A3006 RMK A01 T01480106  RH  076%=      5-min Rain = 0
KMC1 120618Z 22002KT 15/11 A3006 RMK A01 T01480106  RH  076%=      5-min Rain = 0
KMC1 120619Z 22002KT 15/11 A3006 RMK A01 T01470105  RH  076%=      5-min Rain = 0
KMC1 120620Z 21002KT 15/10 A3006 RMK A01 T01460104  RH  076%=      5-min Rain = 0
KMC1 120621Z 20002KT 15/10 A3006 RMK A01 T01450104  RH  076%=      5-min Rain = 0
KMC1 120622Z 20002KT 14/10 A3006 RMK A01 T01430103  RH  077%=      5-min Rain = 0
KMC1 120623Z 19002KT 14/10 A3006 RMK A01 T01430104  RH  077%=      5-min Rain = 0
KMC1 120624Z 20002KT 14/10 A3006 RMK A01 T01420104  RH  078%=      5-min Rain = 0
KMC1 120625Z 20002KT 14/10 A3006 RMK A01 T01410103  RH  078%=      5-min Rain = 0
KMC1 120626Z 20002KT 14/10 A3006 RMK A01 T01410104  RH  078%=      5-min Rain = 0
KMC1 120627Z 20003KT 14/10 A3006 RMK A01 T01400104  RH  079%=      5-min Rain = 0
KMC1 120628Z 21003KT 14/10 A3006 RMK A01 T01400103  RH  078%=      5-min Rain = 0
KMC1 120629Z 21003KT 14/10 A3006 RMK A01 T01390102  RH  078%=      5-min Rain = 0
KMC1 120630Z 21003KT 14/10 A3006 RMK A01 T01390102  RH  079%=      5-min Rain = 0
KMC1 120631Z 21003KT 14/10 A3006 RMK A01 T01390103  RH  079%=      5-min Rain = 0
KMC1 120632Z 21003KT 14/10 A3006 RMK A01 T01380103  RH  079%=      5-min Rain = 0
KMC1 120633Z 21003KT 14/10 A3006 RMK A01 T01380103  RH  079%=      5-min Rain = 0
KMC1 120634Z 21003KT 14/10 A3006 RMK A01 T01370102  RH  079%=      5-min Rain = 0
KMC1 120635Z 21003KT 14/10 A3006 RMK A01 T01370102  RH  080%=      5-min Rain = 0
KMC1 120636Z 21003KT 14/10 A3006 RMK A01 T01360102  RH  080%=      5-min Rain = 0
KMC1 120637Z 21003KT 14/10 A3006 RMK A01 T01350102  RH  080%=      5-min Rain = 0
KMC1 120638Z 21003KT 14/10 A3006 RMK A01 T01350102  RH  080%=      5-min Rain = 0
KMC1 120639Z 21003KT 13/10 A3006 RMK A01 T01340102  RH  081%=      5-min Rain = 0
KMC1 120640Z 21003KT 13/10 A3006 RMK A01 T01340102  RH  081%=      5-min Rain = 0
KMC1 120641Z 22003KT 13/10 A3006 RMK A01 T01330102  RH  081%=      5-min Rain = 0
KMC1 120642Z 22003KT 13/10 A3006 RMK A01 T01330102  RH  082%=      5-min Rain = 0
KMC1 120643Z 22003KT 13/10 A3006 RMK A01 T01330102  RH  082%=      5-min Rain = 0
KMC1 120644Z 22003KT 13/10 A3006 RMK A01 T01330102  RH  082%=      5-min Rain = 0
KMC1 120645Z 22003KT 13/10 A3006 RMK A01 T01330102  RH  081%=      5-min Rain = 0
KMC1 120646Z 21003KT 13/10 A3006 RMK A01 T01330102  RH  082%=      5-min Rain = 0
KMC1 120647Z 21003KT 13/10 A3006 RMK A01 T01330102  RH  082%=      5-min Rain = 0
KMC1 120648Z 20003KT 13/10 A3006 RMK A01 T01320101  RH  081%=      5-min Rain = 0
KMC1 120649Z 21003KT 13/10 A3006 RMK A01 T01320101  RH  081%=      5-min Rain = 0
KMC1 120650Z 21003KT 13/10 A3006 RMK A01 T01330101  RH  081%=      5-min Rain = 0
KMC1 120651Z 20002KT 13/10 A3006 RMK A01 T01320101  RH  081%=      5-min Rain = 0
KMC1 120652Z 20003KT 13/10 A3006 RMK A01 T01320100  RH  081%=      5-min Rain = 0
KMC1 120653Z 22002KT 13/10 A3006 RMK A01 T01310100  RH  081%=      5-min Rain = 0
KMC1 120654Z 20002KT 13/10 A3006 RMK A01 T01310100  RH  082%=      5-min Rain = 0
KMC1 120655Z 21002KT 13/10 A3006 RMK A01 T01310101  RH  082%=      5-min Rain = 0
KMC1 120656Z 21003KT 13/10 A3006 RMK A01 T01310100  RH  081%=      5-min Rain = 0
KMC1 120657Z 21003KT 13/10 A3006 RMK A01 T01310100  RH  082%=      5-min Rain = 0
KMC1 120658Z 20003KT 13/10 A3006 RMK A01 T01310100  RH  081%=      5-min Rain = 0
KMC1 120659Z 21003KT 13/10 A3006 RMK A01 T01310100  RH  081%=      5-min Rain = 0
KMC1 120700Z 21003KT 13/10 A3006 RMK A01 T01310100  RH  081%=      5-min Rain = 0
KMC1 120701Z 21003KT 13/10 A3006 RMK A01 T01310100  RH  082%=      5-min Rain = 0
KMC1 120702Z 21003KT 13/10 A3006 RMK A01 T01310100  RH  082%=      5-min Rain = 0
KMC1 120703Z 21003KT 13/10 A3005 RMK A01 T01310100  RH  081%=      5-min Rain = 0
KMC1 120704Z 21003KT 13/10 A3005 RMK A01 T01310099  RH  081%=      5-min Rain = 0
KMC1 120705Z 21003KT 13/10 A3005 RMK A01 T01300099  RH  081%=      5-min Rain = 0
KMC1 120706Z 21003KT 13/10 A3005 RMK A01 T01300098  RH  081%=      5-min Rain = 0
KMC1 120707Z 21003KT 13/10 A3005 RMK A01 T01300098  RH  081%=      5-min Rain = 0
KMC1 120708Z 22003KT 13/10 A3005 RMK A01 T01300099  RH  081%=      5-min Rain = 0
KMC1 120709Z 21003KT 13/10 A3005 RMK A01 T01290099  RH  082%=      5-min Rain = 0
KMC1 120710Z 22003KT 13/10 A3005 RMK A01 T01290098  RH  082%=      5-min Rain = 0
KMC1 120711Z 21003KT 13/10 A3005 RMK A01 T01280098  RH  082%=      5-min Rain = 0
KMC1 120712Z 21003KT 13/10 A3005 RMK A01 T01280098  RH  082%=      5-min Rain = 0
KMC1 120713Z 21003KT 13/10 A3005 RMK A01 T01270098  RH  082%=      5-min Rain = 0
KMC1 120714Z 21003KT 13/10 A3005 RMK A01 T01270098  RH  083%=      5-min Rain = 0
KMC1 120715Z 22003KT 13/10 A3005 RMK A01 T01270098  RH  083%=      5-min Rain = 0
KMC1 120716Z 22003KT 13/10 A3005 RMK A01 T01260098  RH  083%=      5-min Rain = 0
KMC1 120717Z 22003KT 13/10 A3005 RMK A01 T01260098  RH  083%=      5-min Rain = 0
KMC1 120718Z 22002KT 13/10 A3005 RMK A01 T01250097  RH  083%=      5-min Rain = 0
KMC1 120719Z 22003KT 13/10 A3005 RMK A01 T01260098  RH  083%=      5-min Rain = 0
KMC1 120720Z 23002KT 13/10 A3005 RMK A01 T01250097  RH  083%=      5-min Rain = 0
KMC1 120721Z 23002KT 13/10 A3005 RMK A01 T01250097  RH  083%=      5-min Rain = 0
KMC1 120722Z 23002KT 13/10 A3005 RMK A01 T01250097  RH  083%=      5-min Rain = 0
KMC1 120723Z 23002KT 13/10 A3005 RMK A01 T01250097  RH  083%=      5-min Rain = 0
KMC1 120724Z 23002KT 13/10 A3005 RMK A01 T01250098  RH  084%=      5-min Rain = 0
KMC1 120725Z 23002KT 12/10 A3005 RMK A01 T01240097  RH  084%=      5-min Rain = 0
KMC1 120726Z 23002KT 12/10 A3005 RMK A01 T01240096  RH  083%=      5-min Rain = 0
KMC1 120727Z 22002KT 12/10 A3005 RMK A01 T01230096  RH  084%=      5-min Rain = 0
KMC1 120728Z 22002KT 12/10 A3005 RMK A01 T01230096  RH  084%=      5-min Rain = 0
KMC1 120729Z 23002KT 12/10 A3005 RMK A01 T01230096  RH  084%=      5-min Rain = 0
KMC1 120730Z 22002KT 12/10 A3005 RMK A01 T01230097  RH  084%=      5-min Rain = 0
KMC1 120731Z 23003KT 12/10 A3005 RMK A01 T01230097  RH  084%=      5-min Rain = 0
KMC1 120732Z 22002KT 12/10 A3005 RMK A01 T01230097  RH  084%=      5-min Rain = 0
KMC1 120733Z 23002KT 12/10 A3005 RMK A01 T01220096  RH  084%=      5-min Rain = 0
KMC1 120734Z 22002KT 12/10 A3005 RMK A01 T01220096  RH  084%=      5-min Rain = 0
KMC1 120735Z 23002KT 12/10 A3005 RMK A01 T01220097  RH  084%=      5-min Rain = 0
KMC1 120736Z 23002KT 12/10 A3005 RMK A01 T01220096  RH  084%=      5-min Rain = 0
KMC1 120737Z 23002KT 12/10 A3005 RMK A01 T01220096  RH  084%=      5-min Rain = 0
KMC1 120738Z 23002KT 12/10 A3005 RMK A01 T01220096  RH  084%=      5-min Rain = 0
KMC1 120739Z 23002KT 12/10 A3005 RMK A01 T01220096  RH  084%=      5-min Rain = 0
KMC1 120740Z 23002KT 12/10 A3005 RMK A01 T01220095  RH  084%=      5-min Rain = 0
KMC1 120741Z 23001KT 12/10 A3005 RMK A01 T01230095  RH  083%=      5-min Rain = 0
KMC1 120742Z 23001KT 12/10 A3005 RMK A01 T01230095  RH  083%=      5-min Rain = 0
KMC1 120743Z 23001KT 12/10 A3005 RMK A01 T01240096  RH  083%=      5-min Rain = 0
KMC1 120744Z 23001KT 12/10 A3005 RMK A01 T01240096  RH  083%=      5-min Rain = 0
KMC1 120745Z 24001KT 12/10 A3005 RMK A01 T01240096  RH  083%=      5-min Rain = 0
KMC1 120746Z 25001KT 12/10 A3005 RMK A01 T01240095  RH  083%=      5-min Rain = 0
KMC1 120747Z 25001KT 12/10 A3005 RMK A01 T01240095  RH  082%=      5-min Rain = 0
KMC1 120748Z 25001KT 12/10 A3005 RMK A01 T01240095  RH  083%=      5-min Rain = 0
KMC1 120749Z 25001KT 12/10 A3005 RMK A01 T01240095  RH  083%=      5-min Rain = 0
KMC1 120750Z 26000KT 12/10 A3005 RMK A01 T01240095  RH  083%=      5-min Rain = 0
KMC1 120751Z 26001KT 12/10 A3005 RMK A01 T01240095  RH  083%=      5-min Rain = 0
KMC1 120752Z 24000KT 12/10 A3005 RMK A01 T01240095  RH  083%=      5-min Rain = 0
KMC1 120753Z 24001KT 12/10 A3005 RMK A01 T01240095  RH  083%=      5-min Rain = 0
KMC1 120754Z 26000KT 12/10 A3005 RMK A01 T01240095  RH  083%=      5-min Rain = 0
KMC1 120755Z 25001KT 12/10 A3005 RMK A01 T01240095  RH  083%=      5-min Rain = 0
KMC1 120756Z 24001KT 12/10 A3005 RMK A01 T01230095  RH  083%=      5-min Rain = 0
KMC1 120757Z 25001KT 12/10 A3005 RMK A01 T01230095  RH  083%=      5-min Rain = 0
KMC1 120758Z 24001KT 12/10 A3005 RMK A01 T01230095  RH  083%=      5-min Rain = 0
KMC1 120759Z 24001KT 12/10 A3005 RMK A01 T01220095  RH  083%=      5-min Rain = 0
KMC1 120800Z 24001KT 12/10 A3005 RMK A01 T01220095  RH  083%=      5-min Rain = 0
KMC1 120801Z 24001KT 12/10 A3005 RMK A01 T01220095  RH  083%=      5-min Rain = 0
KMC1 120802Z 23001KT 12/09 A3005 RMK A01 T01220094  RH  083%=      5-min Rain = 0
KMC1 120803Z 22001KT 12/09 A3005 RMK A01 T01210094  RH  083%=      5-min Rain = 0
KMC1 120804Z 23001KT 12/10 A3005 RMK A01 T01210095  RH  084%=      5-min Rain = 0
KMC1 120805Z 22001KT 12/09 A3005 RMK A01 T01210094  RH  084%=      5-min Rain = 0
KMC1 120806Z 22001KT 12/09 A3005 RMK A01 T01200094  RH  084%=      5-min Rain = 0
KMC1 120807Z 21001KT 12/09 A3005 RMK A01 T01200094  RH  084%=      5-min Rain = 0
KMC1 120808Z 21001KT 12/09 A3005 RMK A01 T01200094  RH  084%=      5-min Rain = 0
KMC1 120809Z 21001KT 12/10 A3005 RMK A01 T01200095  RH  085%=      5-min Rain = 0
KMC1 120810Z 21001KT 12/10 A3005 RMK A01 T01200095  RH  085%=      5-min Rain = 0
KMC1 120811Z 21001KT 12/10 A3005 RMK A01 T01200095  RH  085%=      5-min Rain = 0
KMC1 120812Z 21001KT 12/09 A3005 RMK A01 T01190094  RH  085%=      5-min Rain = 0
KMC1 120813Z 22001KT 12/09 A3005 RMK A01 T01190094  RH  085%=      5-min Rain = 0
KMC1 120814Z 22001KT 12/09 A3005 RMK A01 T01190094  RH  085%=      5-min Rain = 0
KMC1 120815Z 22002KT 12/09 A3005 RMK A01 T01190094  RH  085%=      5-min Rain = 0
KMC1 120816Z 22002KT 12/09 A3005 RMK A01 T01180094  RH  085%=      5-min Rain = 0
KMC1 120817Z 22002KT 12/09 A3005 RMK A01 T01190094  RH  085%=      5-min Rain = 0
KMC1 120818Z 22002KT 12/09 A3005 RMK A01 T01180094  RH  085%=      5-min Rain = 0
KMC1 120819Z 22003KT 12/09 A3005 RMK A01 T01180094  RH  085%=      5-min Rain = 0
KMC1 120820Z 23002KT 12/09 A3005 RMK A01 T01180094  RH  085%=      5-min Rain = 0
KMC1 120821Z 23002KT 12/09 A3005 RMK A01 T01180094  RH  085%=      5-min Rain = 0
KMC1 120822Z 23002KT 12/09 A3005 RMK A01 T01180094  RH  085%=      5-min Rain = 0
KMC1 120823Z 22002KT 12/10 A3004 RMK A01 T01180095  RH  086%=      5-min Rain = 0
KMC1 120824Z 22002KT 12/10 A3004 RMK A01 T01180095  RH  086%=      5-min Rain = 0
KMC1 120825Z 22002KT 12/09 A3004 RMK A01 T01180094  RH  085%=      5-min Rain = 0
KMC1 120826Z 22002KT 12/09 A3004 RMK A01 T01170093  RH  085%=      5-min Rain = 0
KMC1 120827Z 22002KT 12/09 A3004 RMK A01 T01170093  RH  085%=      5-min Rain = 0
KMC1 120828Z 22002KT 12/09 A3004 RMK A01 T01170092  RH  085%=      5-min Rain = 0
KMC1 120829Z 22002KT 12/09 A3004 RMK A01 T01160092  RH  085%=      5-min Rain = 0
KMC1 120830Z 22002KT 12/09 A3005 RMK A01 T01160092  RH  085%=      5-min Rain = 0
KMC1 120831Z 22002KT 12/09 A3004 RMK A01 T01160092  RH  085%=      5-min Rain = 0
KMC1 120832Z 22002KT 12/09 A3004 RMK A01 T01160092  RH  085%=      5-min Rain = 0
KMC1 120833Z 22002KT 12/09 A3004 RMK A01 T01160091  RH  085%=      5-min Rain = 0
KMC1 120834Z 22002KT 12/09 A3004 RMK A01 T01150091  RH  085%=      5-min Rain = 0
KMC1 120835Z 22002KT 12/09 A3004 RMK A01 T01150091  RH  085%=      5-min Rain = 0
KMC1 120836Z 21002KT 12/09 A3004 RMK A01 T01160091  RH  085%=      5-min Rain = 0
KMC1 120837Z 21002KT 12/09 A3004 RMK A01 T01150091  RH  085%=      5-min Rain = 0
KMC1 120838Z 21003KT 12/09 A3004 RMK A01 T01150091  RH  085%=      5-min Rain = 0
KMC1 120839Z 21003KT 12/09 A3004 RMK A01 T01150091  RH  085%=      5-min Rain = 0
KMC1 120840Z 21003KT 12/09 A3004 RMK A01 T01150091  RH  085%=      5-min Rain = 0
KMC1 120841Z 21003KT 12/09 A3004 RMK A01 T01150091  RH  085%=      5-min Rain = 0
KMC1 120842Z 21003KT 12/09 A3004 RMK A01 T01150091  RH  085%=      5-min Rain = 0
KMC1 120843Z 21003KT 12/09 A3004 RMK A01 T01150091  RH  085%=      5-min Rain = 0
KMC1 120844Z 21003KT 11/09 A3004 RMK A01 T01140091  RH  086%=      5-min Rain = 0
KMC1 120845Z 21003KT 11/09 A3004 RMK A01 T01140091  RH  086%=      5-min Rain = 0
KMC1 120846Z 21003KT 11/09 A3004 RMK A01 T01140091  RH  086%=      5-min Rain = 0
KMC1 120847Z 21003KT 11/09 A3004 RMK A01 T01140091  RH  086%=      5-min Rain = 0
KMC1 120848Z 21003KT 11/09 A3004 RMK A01 T01140091  RH  086%=      5-min Rain = 0
KMC1 120849Z 21003KT 11/09 A3004 RMK A01 T01140091  RH  086%=      5-min Rain = 0
KMC1 120850Z 21003KT 11/09 A3004 RMK A01 T01140091  RH  086%=      5-min Rain = 0
KMC1 120851Z 21003KT 11/09 A3004 RMK A01 T01140091  RH  086%=      5-min Rain = 0
KMC1 120852Z 21003KT 11/09 A3004 RMK A01 T01140091  RH  086%=      5-min Rain = 0
KMC1 120853Z 21003KT 11/09 A3004 RMK A01 T01140092  RH  086%=      5-min Rain = 0
KMC1 120854Z 21003KT 11/09 A3004 RMK A01 T01140092  RH  086%=      5-min Rain = 0
KMC1 120855Z 21003KT 11/09 A3004 RMK A01 T01130091  RH  086%=      5-min Rain = 0
KMC1 120856Z 22003KT 11/09 A3004 RMK A01 T01130091  RH  086%=      5-min Rain = 0
KMC1 120857Z 22003KT 11/09 A3004 RMK A01 T01130091  RH  086%=      5-min Rain = 0
KMC1 120858Z 22003KT 11/09 A3004 RMK A01 T01130092  RH  087%=      5-min Rain = 0
KMC1 120859Z 22003KT 11/09 A3004 RMK A01 T01130092  RH  087%=      5-min Rain = 0
KMC1 120900Z 22003KT 11/09 A3004 RMK A01 T01130092  RH  087%=      5-min Rain = 0
KMC1 120901Z 22003KT 11/09 A3004 RMK A01 T01140092  RH  086%=      5-min Rain = 0
KMC1 120902Z 23003KT 12/09 A3004 RMK A01 T01150092  RH  086%=      5-min Rain = 0
KMC1 120903Z 23003KT 12/09 A3004 RMK A01 T01160092  RH  085%=      5-min Rain = 0
KMC1 120904Z 22003KT 12/09 A3004 RMK A01 T01180092  RH  084%=      5-min Rain = 0
KMC1 120905Z 22003KT 12/09 A3004 RMK A01 T01190092  RH  084%=      5-min Rain = 0
KMC1 120906Z 23003KT 12/09 A3004 RMK A01 T01200092  RH  083%=      5-min Rain = 0
KMC1 120907Z 22003KT 12/09 A3004 RMK A01 T01210092  RH  083%=      5-min Rain = 0
KMC1 120908Z 23003KT 12/09 A3004 RMK A01 T01210092  RH  083%=      5-min Rain = 0
KMC1 120909Z 23003KT 12/09 A3004 RMK A01 T01220093  RH  082%=      5-min Rain = 0
KMC1 120910Z 23003KT 12/09 A3004 RMK A01 T01210092  RH  082%=      5-min Rain = 0
KMC1 120911Z 23003KT 12/09 A3004 RMK A01 T01220093  RH  082%=      5-min Rain = 0
KMC1 120912Z 23003KT 12/09 A3004 RMK A01 T01220092  RH  082%=      5-min Rain = 0
KMC1 120913Z 23003KT 12/09 A3004 RMK A01 T01220093  RH  082%=      5-min Rain = 0
KMC1 120914Z 23003KT 12/09 A3004 RMK A01 T01220093  RH  082%=      5-min Rain = 0
KMC1 120915Z 23003KT 12/09 A3004 RMK A01 T01220093  RH  083%=      5-min Rain = 0
KMC1 120916Z 23003KT 12/09 A3004 RMK A01 T01210093  RH  083%=      5-min Rain = 0
KMC1 120917Z 23003KT 12/09 A3004 RMK A01 T01210093  RH  083%=      5-min Rain = 0
KMC1 120918Z 23003KT 12/09 A3004 RMK A01 T01210093  RH  083%=      5-min Rain = 0
KMC1 120919Z 23003KT 12/09 A3004 RMK A01 T01210093  RH  083%=      5-min Rain = 0
KMC1 120920Z 23003KT 12/09 A3004 RMK A01 T01220093  RH  083%=      5-min Rain = 0
KMC1 120921Z 23003KT 12/09 A3004 RMK A01 T01220093  RH  083%=      5-min Rain = 0
KMC1 120922Z 23003KT 12/09 A3004 RMK A01 T01220093  RH  082%=      5-min Rain = 0
KMC1 120923Z 23003KT 12/09 A3004 RMK A01 T01230093  RH  082%=      5-min Rain = 0
KMC1 120924Z 24003KT 12/09 A3004 RMK A01 T01230093  RH  082%=      5-min Rain = 0
KMC1 120925Z 24003KT 12/09 A3004 RMK A01 T01230093  RH  082%=      5-min Rain = 0
KMC1 120926Z 24003KT 12/09 A3004 RMK A01 T01230093  RH  082%=      5-min Rain = 0
KMC1 120927Z 24002KT 12/09 A3004 RMK A01 T01220093  RH  082%=      5-min Rain = 0
KMC1 120928Z 24002KT 12/09 A3004 RMK A01 T01220093  RH  082%=      5-min Rain = 0
KMC1 120929Z 24002KT 12/09 A3004 RMK A01 T01210093  RH  083%=      5-min Rain = 0
KMC1 120930Z 23002KT 12/09 A3004 RMK A01 T01210093  RH  083%=      5-min Rain = 0
KMC1 120931Z 23002KT 12/09 A3004 RMK A01 T01200092  RH  083%=      5-min Rain = 0
KMC1 120932Z 23002KT 12/09 A3004 RMK A01 T01190092  RH  084%=      5-min Rain = 0
KMC1 120933Z 22003KT 12/09 A3004 RMK A01 T01180092  RH  084%=      5-min Rain = 0
KMC1 120934Z 22003KT 12/09 A3004 RMK A01 T01170092  RH  084%=      5-min Rain = 0
KMC1 120935Z 22003KT 12/09 A3004 RMK A01 T01160091  RH  085%=      5-min Rain = 0
KMC1 120936Z 22003KT 12/09 A3004 RMK A01 T01150091  RH  085%=      5-min Rain = 0
KMC1 120937Z 22003KT 11/09 A3004 RMK A01 T01140090  RH  085%=      5-min Rain = 0
KMC1 120938Z 22003KT 11/09 A3004 RMK A01 T01130089  RH  085%=      5-min Rain = 0
KMC1 120939Z 23002KT 11/09 A3004 RMK A01 T01120090  RH  086%=      5-min Rain = 0
KMC1 120940Z 22002KT 11/09 A3003 RMK A01 T01120090  RH  086%=      5-min Rain = 0
KMC1 120941Z 22002KT 11/09 A3003 RMK A01 T01110089  RH  087%=      5-min Rain = 0
KMC1 120942Z 21002KT 11/09 A3003 RMK A01 T01110089  RH  087%=      5-min Rain = 0
KMC1 120943Z 21002KT 11/09 A3003 RMK A01 T01100090  RH  087%=      5-min Rain = 0
KMC1 120944Z 21003KT 11/09 A3003 RMK A01 T01110090  RH  087%=      5-min Rain = 0
KMC1 120945Z 21003KT 11/09 A3003 RMK A01 T01110090  RH  087%=      5-min Rain = 0
KMC1 120946Z 21003KT 11/09 A3003 RMK A01 T01100090  RH  087%=      5-min Rain = 0
KMC1 120947Z 21003KT 11/09 A3003 RMK A01 T01110089  RH  087%=      5-min Rain = 0
KMC1 120948Z 21003KT 11/09 A3003 RMK A01 T01110090  RH  086%=      5-min Rain = 0
KMC1 120949Z 21003KT 11/09 A3003 RMK A01 T01120089  RH  086%=      5-min Rain = 0
KMC1 120950Z 21003KT 11/09 A3003 RMK A01 T01120090  RH  086%=      5-min Rain = 0
KMC1 120951Z 21003KT 11/09 A3003 RMK A01 T01120089  RH  086%=      5-min Rain = 0
KMC1 120952Z 21003KT 11/09 A3003 RMK A01 T01120089  RH  086%=      5-min Rain = 0
KMC1 120953Z 21003KT 11/09 A3003 RMK A01 T01120089  RH  086%=      5-min Rain = 0
KMC1 120954Z 21003KT 11/09 A3003 RMK A01 T01120089  RH  086%=      5-min Rain = 0
KMC1 120955Z 21003KT 11/09 A3003 RMK A01 T01120089  RH  086%=      5-min Rain = 0
KMC1 120956Z 21003KT 11/09 A3003 RMK A01 T01120089  RH  086%=      5-min Rain = 0
KMC1 120957Z 21003KT 11/09 A3003 RMK A01 T01120089  RH  086%=      5-min Rain = 0
KMC1 120958Z 21003KT 11/09 A3003 RMK A01 T01120090  RH  086%=      5-min Rain = 0
KMC1 120959Z 20004KT 11/09 A3003 RMK A01 T01120089  RH  086%=      5-min Rain = 0
KMC1 121000Z 20004KT 11/09 A3003 RMK A01 T01120089  RH  086%=      5-min Rain = 0
KMC1 121001Z 20004KT 11/09 A3003 RMK A01 T01120089  RH  086%=      5-min Rain = 0
KMC1 121002Z 20004KT 11/09 A3003 RMK A01 T01120089  RH  086%=      5-min Rain = 0
KMC1 121003Z 21004KT 11/09 A3003 RMK A01 T01110089  RH  086%=      5-min Rain = 0
KMC1 121004Z 21004KT 11/09 A3003 RMK A01 T01110088  RH  086%=      5-min Rain = 0
KMC1 121005Z 20004KT 11/09 A3003 RMK A01 T01100088  RH  086%=      5-min Rain = 0
KMC1 121006Z 20004KT 11/09 A3003 RMK A01 T01100088  RH  087%=      5-min Rain = 0
KMC1 121007Z 20004KT 11/09 A3003 RMK A01 T01090088  RH  087%=      5-min Rain = 0
KMC1 121008Z 20004KT 11/09 A3003 RMK A01 T01100088  RH  087%=      5-min Rain = 0
KMC1 121009Z 20004KT 11/09 A3003 RMK A01 T01090088  RH  087%=      5-min Rain = 0
KMC1 121010Z 20003KT 11/09 A3003 RMK A01 T01090088  RH  087%=      5-min Rain = 0
KMC1 121011Z 20003KT 11/09 A3003 RMK A01 T01090088  RH  087%=      5-min Rain = 0
KMC1 121012Z 20003KT 11/09 A3003 RMK A01 T01090088  RH  087%=      5-min Rain = 0
KMC1 121013Z 20003KT 11/09 A3003 RMK A01 T01100088  RH  086%=      5-min Rain = 0
KMC1 121014Z 20003KT 11/09 A3003 RMK A01 T01100088  RH  086%=      5-min Rain = 0
KMC1 121015Z 20004KT 11/09 A3003 RMK A01 T01100088  RH  086%=      5-min Rain = 0
KMC1 121016Z 20003KT 11/09 A3003 RMK A01 T01100088  RH  086%=      5-min Rain = 0
KMC1 121017Z 20004KT 11/09 A3003 RMK A01 T01100088  RH  086%=      5-min Rain = 0
KMC1 121018Z 21004KT 11/09 A3003 RMK A01 T01100088  RH  086%=      5-min Rain = 0
KMC1 121019Z 21003KT 11/09 A3003 RMK A01 T01110088  RH  086%=      5-min Rain = 0
KMC1 121020Z 21003KT 11/09 A3003 RMK A01 T01100088  RH  086%=      5-min Rain = 0
KMC1 121021Z 20004KT 11/09 A3003 RMK A01 T01100088  RH  086%=      5-min Rain = 0
KMC1 121022Z 20003KT 11/09 A3003 RMK A01 T01100088  RH  086%=      5-min Rain = 0
KMC1 121023Z 20003KT 11/09 A3003 RMK A01 T01100087  RH  086%=      5-min Rain = 0
KMC1 121024Z 21003KT 11/09 A3003 RMK A01 T01100087  RH  086%=      5-min Rain = 0
KMC1 121025Z 21003KT 11/09 A3003 RMK A01 T01090087  RH  086%=      5-min Rain = 0
KMC1 121026Z 21003KT 11/09 A3003 RMK A01 T01090087  RH  086%=      5-min Rain = 0
KMC1 121027Z 21003KT 11/09 A3003 RMK A01 T01090087  RH  086%=      5-min Rain = 0
KMC1 121028Z 21003KT 11/09 A3003 RMK A01 T01080087  RH  086%=      5-min Rain = 0
KMC1 121029Z 21003KT 11/09 A3003 RMK A01 T01080086  RH  086%=      5-min Rain = 0
KMC1 121030Z 21003KT 11/09 A3003 RMK A01 T01070086  RH  087%=      5-min Rain = 0
KMC1 121031Z 21003KT 11/09 A3003 RMK A01 T01070085  RH  087%=      5-min Rain = 0
KMC1 121032Z 21003KT 11/09 A3003 RMK A01 T01060085  RH  087%=      5-min Rain = 0
KMC1 121033Z 21003KT 11/09 A3003 RMK A01 T01060085  RH  087%=      5-min Rain = 0
KMC1 121034Z 21003KT 11/09 A3003 RMK A01 T01050085  RH  087%=      5-min Rain = 0
KMC1 121035Z 21003KT 11/09 A3003 RMK A01 T01050085  RH  088%=      5-min Rain = 0
KMC1 121036Z 21003KT 10/09 A3003 RMK A01 T01040085  RH  088%=      5-min Rain = 0
KMC1 121037Z 21003KT 10/08 A3003 RMK A01 T01040084  RH  088%=      5-min Rain = 0
KMC1 121038Z 22003KT 10/09 A3003 RMK A01 T01040085  RH  088%=      5-min Rain = 0
KMC1 121039Z 22003KT 10/09 A3003 RMK A01 T01030085  RH  088%=      5-min Rain = 0
KMC1 121040Z 22003KT 10/09 A3003 RMK A01 T01030085  RH  088%=      5-min Rain = 0
KMC1 121041Z 22003KT 10/09 A3003 RMK A01 T01030085  RH  088%=      5-min Rain = 0
KMC1 121042Z 22003KT 10/08 A3003 RMK A01 T01030084  RH  088%=      5-min Rain = 0
KMC1 121043Z 22003KT 10/08 A3003 RMK A01 T01030084  RH  089%=      5-min Rain = 0
KMC1 121044Z 22003KT 10/08 A3003 RMK A01 T01020084  RH  089%=      5-min Rain = 0
KMC1 121045Z 22003KT 10/08 A3003 RMK A01 T01020084  RH  089%=      5-min Rain = 0
KMC1 121046Z 22003KT 10/08 A3003 RMK A01 T01020084  RH  089%=      5-min Rain = 0
KMC1 121047Z 22003KT 10/08 A3004 RMK A01 T01020084  RH  089%=      5-min Rain = 0
KMC1 121048Z 22003KT 10/08 A3004 RMK A01 T01020084  RH  089%=      5-min Rain = 0
KMC1 121049Z 22003KT 10/08 A3004 RMK A01 T01020084  RH  088%=      5-min Rain = 0
KMC1 121050Z 22003KT 10/08 A3004 RMK A01 T01010083  RH  088%=      5-min Rain = 0
KMC1 121051Z 22003KT 10/08 A3004 RMK A01 T01010083  RH  088%=      5-min Rain = 0
KMC1 121052Z 22003KT 10/08 A3004 RMK A01 T01010083  RH  089%=      5-min Rain = 0
KMC1 121053Z 22003KT 10/08 A3004 RMK A01 T01010083  RH  089%=      5-min Rain = 0
KMC1 121054Z 22003KT 10/08 A3004 RMK A01 T01000083  RH  089%=      5-min Rain = 0
KMC1 121055Z 22003KT 10/08 A3004 RMK A01 T01000082  RH  089%=      5-min Rain = 0
KMC1 121056Z 22003KT 10/08 A3004 RMK A01 T01000082  RH  089%=      5-min Rain = 0
KMC1 121057Z 22003KT 10/08 A3004 RMK A01 T00990082  RH  089%=      5-min Rain = 0
KMC1 121058Z 22003KT 10/08 A3004 RMK A01 T01000082  RH  089%=      5-min Rain = 0
KMC1 121059Z 22003KT 10/08 A3004 RMK A01 T00990082  RH  089%=      5-min Rain = 0
KMC1 121100Z 21003KT 10/08 A3004 RMK A01 T00990081  RH  089%=      5-min Rain = 0
KMC1 121101Z 22003KT 10/08 A3004 RMK A01 T00990081  RH  089%=      5-min Rain = 0
KMC1 121102Z 22003KT 10/08 A3004 RMK A01 T00990081  RH  089%=      5-min Rain = 0
KMC1 121103Z 22003KT 10/08 A3004 RMK A01 T00980081  RH  089%=      5-min Rain = 0
KMC1 121104Z 22003KT 10/08 A3004 RMK A01 T00980080  RH  089%=      5-min Rain = 0
KMC1 121105Z 22003KT 10/08 A3004 RMK A01 T00980080  RH  089%=      5-min Rain = 0
KMC1 121106Z 22002KT 10/08 A3004 RMK A01 T00980080  RH  089%=      5-min Rain = 0
KMC1 121107Z 23002KT 10/08 A3004 RMK A01 T00980081  RH  089%=      5-min Rain = 0
KMC1 121108Z 24002KT 10/08 A3004 RMK A01 T00980081  RH  089%=      5-min Rain = 0
KMC1 121109Z 24002KT 10/08 A3004 RMK A01 T00980081  RH  089%=      5-min Rain = 0
KMC1 121110Z 23002KT 10/08 A3004 RMK A01 T00980081  RH  089%=      5-min Rain = 0
KMC1 121111Z 23002KT 10/08 A3004 RMK A01 T00980080  RH  089%=      5-min Rain = 0
KMC1 121112Z 23002KT 10/08 A3004 RMK A01 T00980081  RH  089%=      5-min Rain = 0
KMC1 121113Z 23002KT 10/08 A3004 RMK A01 T00980080  RH  089%=      5-min Rain = 0
KMC1 121114Z 23002KT 10/08 A3004 RMK A01 T00980080  RH  089%=      5-min Rain = 0
KMC1 121115Z 24002KT 10/08 A3004 RMK A01 T00980080  RH  089%=      5-min Rain = 0
KMC1 121116Z 24002KT 10/08 A3004 RMK A01 T00980081  RH  089%=      5-min Rain = 0
KMC1 121117Z 24002KT 10/08 A3004 RMK A01 T00990081  RH  089%=      5-min Rain = 0
KMC1 121118Z 23002KT 10/08 A3004 RMK A01 T00990082  RH  089%=      5-min Rain = 0
KMC1 121119Z 23002KT 10/08 A3004 RMK A01 T01000083  RH  089%=      5-min Rain = 0
KMC1 121120Z 23002KT 10/08 A3004 RMK A01 T01010083  RH  089%=      5-min Rain = 0
KMC1 121121Z 23002KT 10/08 A3004 RMK A01 T01020083  RH  088%=      5-min Rain = 0
KMC1 121122Z 23002KT 10/08 A3004 RMK A01 T01020084  RH  088%=      5-min Rain = 0
KMC1 121123Z 23002KT 10/08 A3004 RMK A01 T01030084  RH  088%=      5-min Rain = 0
KMC1 121124Z 23002KT 10/08 A3004 RMK A01 T01030084  RH  088%=      5-min Rain = 0
KMC1 121125Z 23002KT 10/09 A3004 RMK A01 T01040085  RH  088%=      5-min Rain = 0
KMC1 121126Z 23002KT 11/09 A3004 RMK A01 T01050085  RH  088%=      5-min Rain = 0
KMC1 121127Z 23002KT 11/09 A3004 RMK A01 T01060086  RH  087%=      5-min Rain = 0
KMC1 121128Z 23002KT 11/09 A3004 RMK A01 T01070086  RH  087%=      5-min Rain = 0
KMC1 121129Z 23002KT 11/09 A3004 RMK A01 T01080086  RH  086%=      5-min Rain = 0
KMC1 121130Z 23002KT 11/09 A3004 RMK A01 T01080086  RH  086%=      5-min Rain = 0
KMC1 121131Z 23002KT 11/09 A3004 RMK A01 T01090086  RH  086%=      5-min Rain = 0
KMC1 121132Z 23002KT 11/09 A3004 RMK A01 T01090086  RH  086%=      5-min Rain = 0
KMC1 121133Z 23002KT 11/09 A3004 RMK A01 T01090086  RH  086%=      5-min Rain = 0
KMC1 121134Z 23002KT 11/09 A3004 RMK A01 T01090086  RH  086%=      5-min Rain = 0
KMC1 121135Z 23002KT 11/09 A3004 RMK A01 T01090087  RH  086%=      5-min Rain = 0
KMC1 121136Z 23003KT 11/09 A3004 RMK A01 T01090086  RH  086%=      5-min Rain = 0
KMC1 121137Z 23003KT 11/09 A3004 RMK A01 T01090087  RH  086%=      5-min Rain = 0
KMC1 121138Z 23003KT 11/09 A3004 RMK A01 T01100088  RH  086%=      5-min Rain = 0
KMC1 121139Z 23003KT 11/09 A3004 RMK A01 T01110088  RH  086%=      5-min Rain = 0
KMC1 121140Z 23003KT 11/09 A3004 RMK A01 T01110088  RH  085%=      5-min Rain = 0
KMC1 121141Z 23003KT 11/09 A3004 RMK A01 T01120088  RH  085%=      5-min Rain = 0
KMC1 121142Z 23003KT 11/09 A3004 RMK A01 T01120088  RH  085%=      5-min Rain = 0
KMC1 121143Z 23003KT 11/09 A3004 RMK A01 T01120087  RH  085%=      5-min Rain = 0
KMC1 121144Z 23003KT 11/09 A3004 RMK A01 T01110087  RH  085%=      5-min Rain = 0
KMC1 121145Z 24003KT 11/09 A3004 RMK A01 T01110087  RH  085%=      5-min Rain = 0
KMC1 121146Z 24003KT 11/09 A3004 RMK A01 T01100087  RH  086%=      5-min Rain = 0
KMC1 121147Z 24003KT 11/09 A3004 RMK A01 T01100087  RH  086%=      5-min Rain = 0
KMC1 121148Z 24003KT 11/09 A3004 RMK A01 T01090087  RH  086%=      5-min Rain = 0
KMC1 121149Z 23003KT 11/09 A3004 RMK A01 T01080087  RH  087%=      5-min Rain = 0
KMC1 121150Z 24003KT 11/09 A3004 RMK A01 T01080087  RH  087%=      5-min Rain = 0
KMC1 121151Z 24003KT 11/09 A3005 RMK A01 T01070086  RH  087%=      5-min Rain = 0
KMC1 121152Z 25003KT 11/09 A3005 RMK A01 T01060086  RH  087%=      5-min Rain = 0
KMC1 121153Z 24003KT 11/09 A3005 RMK A01 T01050085  RH  087%=      5-min Rain = 0
KMC1 121154Z 25003KT 10/08 A3005 RMK A01 T01040084  RH  088%=      5-min Rain = 0
KMC1 121155Z 24003KT 10/08 A3005 RMK A01 T01040084  RH  088%=      5-min Rain = 0
KMC1 121156Z 23003KT 10/08 A3005 RMK A01 T01030083  RH  088%=      5-min Rain = 0
KMC1 121157Z 23003KT 10/08 A3005 RMK A01 T01020082  RH  088%=      5-min Rain = 0
KMC1 121158Z 23003KT 10/08 A3004 RMK A01 T01010081  RH  088%=      5-min Rain = 0
KMC1 121159Z 23003KT 10/08 A3004 RMK A01 T01000081  RH  088%=      5-min Rain = 0
KMC1 121200Z 23003KT 10/08 A3004 RMK A01 T00990080  RH  089%=      5-min Rain = 0
KMC1 121201Z 23003KT 10/08 A3004 RMK A01 T00980081  RH  089%=      5-min Rain = 0
KMC1 121202Z 22003KT 10/08 A3004 RMK A01 T00980081  RH  089%=      5-min Rain = 0
KMC1 121203Z 22003KT 10/08 A3004 RMK A01 T00970081  RH  090%=      5-min Rain = 0
KMC1 121204Z 21003KT 10/08 A3004 RMK A01 T00970081  RH  090%=      5-min Rain = 0
KMC1 121205Z 21003KT 10/08 A3004 RMK A01 T00970081  RH  090%=      5-min Rain = 0
KMC1 121206Z 21003KT 10/08 A3004 RMK A01 T00960081  RH  090%=      5-min Rain = 0
KMC1 121207Z 21003KT 10/08 A3004 RMK A01 T00960082  RH  091%=      5-min Rain = 0
KMC1 121208Z 21003KT 10/08 A3004 RMK A01 T00960082  RH  091%=      5-min Rain = 0
KMC1 121209Z 21003KT 10/08 A3004 RMK A01 T00960082  RH  091%=      5-min Rain = 0
KMC1 121210Z 22003KT 10/08 A3004 RMK A01 T00960081  RH  090%=      5-min Rain = 0
KMC1 121211Z 22003KT 10/08 A3005 RMK A01 T00960081  RH  090%=      5-min Rain = 0
KMC1 121212Z 22003KT 10/08 A3005 RMK A01 T00960081  RH  090%=      5-min Rain = 0
KMC1 121213Z 22003KT 10/08 A3005 RMK A01 T00960081  RH  090%=      5-min Rain = 0
KMC1 121214Z 23003KT 10/08 A3005 RMK A01 T00960081  RH  090%=      5-min Rain = 0
KMC1 121215Z 23003KT 10/08 A3005 RMK A01 T00960081  RH  090%=      5-min Rain = 0
KMC1 121216Z 23003KT 10/08 A3005 RMK A01 T00960081  RH  090%=      5-min Rain = 0
KMC1 121217Z 23003KT 10/08 A3005 RMK A01 T00950081  RH  090%=      5-min Rain = 0
KMC1 121218Z 23003KT 10/08 A3005 RMK A01 T00950081  RH  091%=      5-min Rain = 0
KMC1 121219Z 23003KT 10/08 A3005 RMK A01 T00950081  RH  091%=      5-min Rain = 0
KMC1 121220Z 22002KT 10/08 A3005 RMK A01 T00950080  RH  091%=      5-min Rain = 0
KMC1 121221Z 22002KT 09/08 A3005 RMK A01 T00940080  RH  091%=      5-min Rain = 0
KMC1 121222Z 22002KT 09/08 A3005 RMK A01 T00940079  RH  091%=      5-min Rain = 0
KMC1 121223Z 22002KT 09/08 A3005 RMK A01 T00940079  RH  091%=      5-min Rain = 0
KMC1 121224Z 22002KT 09/08 A3005 RMK A01 T00940079  RH  091%=      5-min Rain = 0
KMC1 121225Z 22002KT 09/08 A3005 RMK A01 T00930079  RH  091%=      5-min Rain = 0
KMC1 121226Z 22002KT 09/08 A3005 RMK A01 T00930078  RH  091%=      5-min Rain = 0
KMC1 121227Z 22002KT 09/08 A3005 RMK A01 T00930078  RH  091%=      5-min Rain = 0
KMC1 121228Z 22002KT 09/08 A3005 RMK A01 T00930078  RH  091%=      5-min Rain = 0
KMC1 121229Z 23003KT 09/08 A3005 RMK A01 T00930078  RH  091%=      5-min Rain = 0
KMC1 121230Z 23003KT 09/08 A3005 RMK A01 T00930078  RH  091%=      5-min Rain = 0
KMC1 121231Z 23003KT 09/08 A3005 RMK A01 T00930079  RH  091%=      5-min Rain = 0
KMC1 121232Z 22004KT 09/08 A3005 RMK A01 T00920078  RH  091%=      5-min Rain = 0
KMC1 121233Z 21004KT 09/08 A3005 RMK A01 T00930078  RH  091%=      5-min Rain = 0
KMC1 121234Z 23003KT 09/08 A3005 RMK A01 T00930079  RH  091%=      5-min Rain = 0
KMC1 121235Z 24003KT 09/08 A3005 RMK A01 T00930081  RH  092%=      5-min Rain = 0
KMC1 121236Z 22004KT 10/08 A3005 RMK A01 T00950082  RH  092%=      5-min Rain = 0
KMC1 121237Z 23004KT 10/08 A3005 RMK A01 T00970082  RH  091%=      5-min Rain = 0
KMC1 121238Z 23003KT 10/08 A3005 RMK A01 T00970082  RH  090%=      5-min Rain = 0
KMC1 121239Z 22004KT 10/08 A3005 RMK A01 T00970082  RH  090%=      5-min Rain = 0
KMC1 121240Z 23003KT 10/08 A3005 RMK A01 T00980082  RH  090%=      5-min Rain = 0
KMC1 121241Z 22003KT 10/08 A3005 RMK A01 T00980082  RH  090%=      5-min Rain = 0
KMC1 121242Z 21003KT 10/08 A3005 RMK A01 T00980082  RH  090%=      5-min Rain = 0
KMC1 121243Z 22003KT 10/08 A3005 RMK A01 T00990082  RH  090%=      5-min Rain = 0
KMC1 121244Z 23003KT 10/08 A3005 RMK A01 T00990083  RH  090%=      5-min Rain = 0
KMC1 121245Z 22003KT 10/08 A3005 RMK A01 T01000083  RH  089%=      5-min Rain = 0
KMC1 121246Z 21003KT 10/08 A3006 RMK A01 T01000083  RH  089%=      5-min Rain = 0
KMC1 121247Z 22003KT 10/08 A3005 RMK A01 T01010083  RH  089%=      5-min Rain = 0
KMC1 121248Z 23003KT 10/08 A3005 RMK A01 T01010083  RH  089%=      5-min Rain = 0
KMC1 121249Z 23003KT 10/08 A3005 RMK A01 T01020084  RH  088%=      5-min Rain = 0
KMC1 121250Z 22003KT 10/08 A3006 RMK A01 T01020084  RH  088%=      5-min Rain = 0
KMC1 121251Z 23003KT 10/08 A3006 RMK A01 T01030084  RH  088%=      5-min Rain = 0
KMC1 121252Z 23003KT 10/08 A3006 RMK A01 T01030084  RH  088%=      5-min Rain = 0
KMC1 121253Z 23003KT 10/08 A3006 RMK A01 T01030084  RH  088%=      5-min Rain = 0
KMC1 121254Z 24003KT 10/09 A3006 RMK A01 T01040085  RH  088%=      5-min Rain = 0
KMC1 121255Z 23003KT 10/09 A3006 RMK A01 T01040085  RH  088%=      5-min Rain = 0
KMC1 121256Z 23003KT 10/09 A3006 RMK A01 T01040085  RH  088%=      5-min Rain = 0
KMC1 121257Z 22003KT 11/09 A3006 RMK A01 T01050085  RH  088%=      5-min Rain = 0
KMC1 121258Z 23003KT 11/09 A3006 RMK A01 T01050085  RH  087%=      5-min Rain = 0
KMC1 121259Z 23002KT 11/09 A3006 RMK A01 T01060086  RH  088%=      5-min Rain = 0
KMC1 121300Z 23002KT 11/09 A3006 RMK A01 T01060086  RH  087%=      5-min Rain = 0
KMC1 121301Z 24002KT 11/09 A3006 RMK A01 T01060086  RH  087%=      5-min Rain = 0
KMC1 121302Z 24002KT 11/09 A3006 RMK A01 T01070087  RH  087%=      5-min Rain = 0
KMC1 121303Z 24002KT 11/09 A3006 RMK A01 T01080087  RH  087%=      5-min Rain = 0
KMC1 121304Z 23002KT 11/09 A3006 RMK A01 T01080087  RH  087%=      5-min Rain = 0
KMC1 121305Z 24002KT 11/09 A3006 RMK A01 T01090088  RH  087%=      5-min Rain = 0
KMC1 121306Z 24002KT 11/09 A3006 RMK A01 T01100087  RH  086%=      5-min Rain = 0
KMC1 121307Z 24002KT 11/09 A3006 RMK A01 T01110088  RH  086%=      5-min Rain = 0
KMC1 121308Z 25001KT 11/09 A3006 RMK A01 T01110089  RH  086%=      5-min Rain = 0
KMC1 121309Z 25001KT 11/09 A3006 RMK A01 T01120089  RH  086%=      5-min Rain = 0
KMC1 121310Z 25001KT 11/09 A3006 RMK A01 T01120089  RH  086%=      5-min Rain = 0
KMC1 121311Z 25001KT 11/09 A3006 RMK A01 T01120090  RH  086%=      5-min Rain = 0
KMC1 121312Z 24001KT 11/09 A3006 RMK A01 T01130090  RH  086%=      5-min Rain = 0
KMC1 121313Z 25000KT 11/09 A3006 RMK A01 T01140091  RH  086%=      5-min Rain = 0
KMC1 121314Z 24001KT 11/09 A3006 RMK A01 T01140091  RH  085%=      5-min Rain = 0
KMC1 121315Z 22002KT 12/09 A3006 RMK A01 T01150089  RH  084%=      5-min Rain = 0
KMC1 121316Z 22000KT 12/09 A3006 RMK A01 T01160090  RH  084%=      5-min Rain = 0
KMC1 121317Z 22001KT 12/09 A3006 RMK A01 T01170092  RH  085%=      5-min Rain = 0
KMC1 121318Z 22001KT 12/09 A3006 RMK A01 T01170091  RH  084%=      5-min Rain = 0
KMC1 121319Z 22001KT 12/09 A3006 RMK A01 T01180092  RH  084%=      5-min Rain = 0
KMC1 121320Z 22001KT 12/09 A3006 RMK A01 T01190092  RH  084%=      5-min Rain = 0
KMC1 121321Z 23002KT 12/09 A3006 RMK A01 T01200093  RH  084%=      5-min Rain = 0
KMC1 121322Z 23001KT 12/09 A3006 RMK A01 T01200091  RH  082%=      5-min Rain = 0
KMC1 121323Z 22002KT 12/09 A3006 RMK A01 T01210090  RH  081%=      5-min Rain = 0
KMC1 121324Z 24001KT 12/09 A3006 RMK A01 T01210091  RH  081%=      5-min Rain = 0
KMC1 121325Z 24001KT 12/09 A3006 RMK A01 T01220092  RH  082%=      5-min Rain = 0
KMC1 121326Z 24001KT 12/09 A3006 RMK A01 T01230092  RH  081%=      5-min Rain = 0
KMC1 121327Z 24002KT 12/09 A3006 RMK A01 T01240091  RH  081%=      5-min Rain = 0
KMC1 121328Z 23001KT 12/09 A3006 RMK A01 T01240092  RH  081%=      5-min Rain = 0
KMC1 121329Z 23001KT 13/09 A3006 RMK A01 T01250092  RH  080%=      5-min Rain = 0
KMC1 121330Z 23002KT 13/09 A3006 RMK A01 T01250093  RH  081%=      5-min Rain = 0
KMC1 121331Z 23001KT 13/10 A3006 RMK A01 T01260095  RH  081%=      5-min Rain = 0
KMC1 121332Z 23001KT 13/09 A3006 RMK A01 T01270094  RH  080%=      5-min Rain = 0
KMC1 121333Z 25001KT 13/10 A3006 RMK A01 T01280095  RH  081%=      5-min Rain = 0
KMC1 121334Z 26001KT 13/10 A3006 RMK A01 T01290096  RH  080%=      5-min Rain = 0
KMC1 121335Z 26001KT 13/10 A3006 RMK A01 T01300096  RH  080%=      5-min Rain = 0
KMC1 121336Z 24002KT 13/09 A3006 RMK A01 T01300094  RH  078%=      5-min Rain = 0
KMC1 121337Z 23002KT 13/10 A3006 RMK A01 T01300095  RH  079%=      5-min Rain = 0
KMC1 121338Z 25002KT 13/10 A3006 RMK A01 T01310095  RH  079%=      5-min Rain = 0
KMC1 121339Z 25001KT 13/10 A3006 RMK A01 T01310096  RH  079%=      5-min Rain = 0
KMC1 121340Z 22002KT 13/10 A3006 RMK A01 T01320099  RH  080%=      5-min Rain = 0
KMC1 121341Z 21001KT 13/10 A3006 RMK A01 T01330096  RH  078%=      5-min Rain = 0
KMC1 121342Z 24001KT 13/10 A3006 RMK A01 T01330097  RH  078%=      5-min Rain = 0
KMC1 121343Z 25001KT 13/10 A3006 RMK A01 T01340098  RH  079%=      5-min Rain = 0
KMC1 121344Z 24001KT 14/10 A3006 RMK A01 T01350098  RH  078%=      5-min Rain = 0
KMC1 121345Z 24001KT 14/10 A3006 RMK A01 T01360099  RH  078%=      5-min Rain = 0
KMC1 121346Z 24002KT 14/10 A3006 RMK A01 T01370098  RH  078%=      5-min Rain = 0
KMC1 121347Z 24002KT 14/10 A3006 RMK A01 T01370098  RH  077%=      5-min Rain = 0
KMC1 121348Z 24002KT 14/10 A3006 RMK A01 T01380100  RH  078%=      5-min Rain = 0
KMC1 121349Z 24001KT 14/10 A3006 RMK A01 T01390099  RH  077%=      5-min Rain = 0
KMC1 121350Z 25001KT 14/10 A3006 RMK A01 T01390101  RH  077%=      5-min Rain = 0
KMC1 121351Z 24001KT 14/10 A3006 RMK A01 T01410103  RH  078%=      5-min Rain = 0
KMC1 121352Z 24002KT 14/10 A3006 RMK A01 T01420101  RH  077%=      5-min Rain = 0
KMC1 121353Z 25002KT 14/10 A3006 RMK A01 T01420100  RH  076%=      5-min Rain = 0
KMC1 121354Z 25001KT 14/10 A3006 RMK A01 T01430101  RH  076%=      5-min Rain = 0
KMC1 121355Z 25002KT 14/10 A3006 RMK A01 T01440102  RH  076%=      5-min Rain = 0
KMC1 121356Z 25002KT 14/10 A3006 RMK A01 T01440101  RH  075%=      5-min Rain = 0
KMC1 121357Z 25002KT 15/10 A3006 RMK A01 T01450101  RH  075%=      5-min Rain = 0
KMC1 121358Z 24001KT 15/10 A3006 RMK A01 T01450102  RH  076%=      5-min Rain = 0
KMC1 121359Z 24001KT 15/10 A3006 RMK A01 T01460104  RH  076%=      5-min Rain = 0
KMC1 121400Z 27001KT 15/10 A3006 RMK A01 T01470104  RH  075%=      5-min Rain = 0
KMC1 121401Z 27001KT 15/11 A3006 RMK A01 T01490106  RH  075%=      5-min Rain = 0
KMC1 121402Z 27001KT 15/10 A3006 RMK A01 T01500104  RH  074%=      5-min Rain = 0
KMC1 121403Z 22001KT 15/11 A3006 RMK A01 T01510105  RH  074%=      5-min Rain = 0
KMC1 121404Z 24001KT 15/11 A3006 RMK A01 T01520108  RH  075%=      5-min Rain = 0
KMC1 121405Z 22001KT 15/11 A3006 RMK A01 T01530107  RH  074%=      5-min Rain = 0
KMC1 121406Z 23001KT 15/11 A3006 RMK A01 T01540107  RH  073%=      5-min Rain = 0
KMC1 121407Z 25001KT 16/11 A3006 RMK A01 T01560108  RH  073%=      5-min Rain = 0
KMC1 121408Z 25002KT 16/11 A3006 RMK A01 T01570107  RH  072%=      5-min Rain = 0
KMC1 121409Z 25002KT 16/11 A3006 RMK A01 T01570106  RH  072%=      5-min Rain = 0
KMC1 121410Z 26002KT 16/11 A3006 RMK A01 T01580108  RH  072%=      5-min Rain = 0
KMC1 121411Z 24001KT 16/11 A3006 RMK A01 T01590108  RH  072%=      5-min Rain = 0
KMC1 121412Z 23001KT 16/11 A3006 RMK A01 T01600108  RH  071%=      5-min Rain = 0
KMC1 121413Z 24001KT 16/11 A3006 RMK A01 T01610111  RH  072%=      5-min Rain = 0
KMC1 121414Z 24001KT 16/11 A3006 RMK A01 T01630110  RH  071%=      5-min Rain = 0
KMC1 121415Z 24001KT 17/11 A3006 RMK A01 T01650112  RH  071%=      5-min Rain = 0
KMC1 121416Z 24001KT 17/11 A3006 RMK A01 T01660112  RH  070%=      5-min Rain = 0
KMC1 121417Z 24002KT 17/11 A3006 RMK A01 T01670109  RH  069%=      5-min Rain = 0
KMC1 121418Z 26001KT 17/11 A3006 RMK A01 T01670110  RH  069%=      5-min Rain = 0
KMC1 121419Z 25002KT 17/11 A3006 RMK A01 T01670111  RH  070%=      5-min Rain = 0
KMC1 121420Z 24002KT 17/11 A3006 RMK A01 T01680111  RH  069%=      5-min Rain = 0
KMC1 121421Z 24002KT 17/11 A3006 RMK A01 T01680110  RH  069%=      5-min Rain = 0
KMC1 121422Z 23002KT 17/11 A3006 RMK A01 T01690112  RH  069%=      5-min Rain = 0
KMC1 121423Z 24001KT 17/12 A3006 RMK A01 T01710115  RH  069%=      5-min Rain = 0
KMC1 121424Z 24002KT 17/11 A3006 RMK A01 T01740114  RH  068%=      5-min Rain = 0
KMC1 121425Z 25002KT 18/11 A3006 RMK A01 T01750114  RH  067%=      5-min Rain = 0
KMC1 121426Z 24001KT 18/11 A3006 RMK A01 T01760113  RH  067%=      5-min Rain = 0
KMC1 121427Z 24002KT 18/11 A3006 RMK A01 T01760114  RH  067%=      5-min Rain = 0
KMC1 121428Z 26002KT 18/12 A3006 RMK A01 T01780115  RH  066%=      5-min Rain = 0
KMC1 121429Z 25002KT 18/11 A3006 RMK A01 T01780114  RH  066%=      5-min Rain = 0
KMC1 121430Z 24002KT 18/11 A3006 RMK A01 T01790114  RH  066%=      5-min Rain = 0
KMC1 121431Z 25002KT 18/12 A3006 RMK A01 T01800115  RH  066%=      5-min Rain = 0
KMC1 121432Z 25002KT 18/12 A3006 RMK A01 T01800117  RH  066%=      5-min Rain = 0
KMC1 121433Z 27002KT 18/12 A3006 RMK A01 T01820117  RH  066%=      5-min Rain = 0
KMC1 121434Z 26002KT 18/12 A3006 RMK A01 T01820117  RH  066%=      5-min Rain = 0
KMC1 121435Z 24002KT 18/12 A3006 RMK A01 T01840118  RH  065%=      5-min Rain = 0
KMC1 121436Z 25002KT 18/12 A3006 RMK A01 T01840117  RH  065%=      5-min Rain = 0
KMC1 121437Z 26002KT 18/12 A3006 RMK A01 T01840118  RH  065%=      5-min Rain = 0
KMC1 121438Z 26003KT 19/12 A3006 RMK A01 T01850120  RH  066%=      5-min Rain = 0
KMC1 121439Z 25002KT 19/12 A3006 RMK A01 T01860119  RH  065%=      5-min Rain = 0
KMC1 121440Z 25002KT 19/12 A3006 RMK A01 T01870120  RH  065%=      5-min Rain = 0
KMC1 121441Z 27002KT 19/12 A3006 RMK A01 T01870122  RH  066%=      5-min Rain = 0
KMC1 121442Z 26001KT 19/12 A3006 RMK A01 T01890124  RH  066%=      5-min Rain = 0
KMC1 121443Z 26002KT 19/13 A3006 RMK A01 T01900125  RH  066%=      5-min Rain = 0
KMC1 121444Z 28002KT 19/13 A3006 RMK A01 T01920125  RH  065%=      5-min Rain = 0
KMC1 121445Z 27003KT 19/13 A3006 RMK A01 T01930125  RH  064%=      5-min Rain = 0
KMC1 121446Z 28002KT 19/13 A3006 RMK A01 T01940125  RH  064%=      5-min Rain = 0
KMC1 121447Z 28002KT 20/13 A3006 RMK A01 T01960128  RH  065%=      5-min Rain = 0
KMC1 121448Z 27004KT 20/13 A3006 RMK A01 T01970127  RH  064%=      5-min Rain = 0
KMC1 121449Z 27004KT 20/13 A3006 RMK A01 T01990127  RH  063%=      5-min Rain = 0
KMC1 121450Z 28003KT 20/13 A3006 RMK A01 T01990127  RH  063%=      5-min Rain = 0
KMC1 121451Z 28002KT 20/13 A3006 RMK A01 T02000130  RH  064%=      5-min Rain = 0
KMC1 121452Z 27004KT 20/13 A3006 RMK A01 T02020129  RH  063%=      5-min Rain = 0
KMC1 121453Z 28004KT 20/13 A3006 RMK A01 T02020127  RH  062%=      5-min Rain = 0
KMC1 121454Z 28004KT 20/13 A3006 RMK A01 T02030129  RH  062%=      5-min Rain = 0
KMC1 121455Z 27004KT 20/13 A3006 RMK A01 T02040130  RH  062%=      5-min Rain = 0
KMC1 121456Z 27004KT 21/13 A3006 RMK A01 T02050129  RH  062%=      5-min Rain = 0
KMC1 121457Z 28003KT 21/13 A3006 RMK A01 T02060131  RH  062%=      5-min Rain = 0
KMC1 121458Z 26005KT 21/13 A3006 RMK A01 T02090132  RH  061%=      5-min Rain = 0
KMC1 121459Z 26004KT 21/13 A3006 RMK A01 T02100129  RH  060%=      5-min Rain = 0
KMC1 121500Z 26004KT 21/13 A3006 RMK A01 T02120129  RH  059%=      5-min Rain = 0
KMC1 121501Z 26003KT 21/13 A3006 RMK A01 T02140129  RH  059%=      5-min Rain = 0
KMC1 121502Z 27002KT 22/13 A3006 RMK A01 T02150130  RH  058%=      5-min Rain = 0
KMC1 121503Z 26004KT 22/14 A3006 RMK A01 T02180135  RH  059%=      5-min Rain = 0
KMC1 121504Z 25005KT 22/13 A3006 RMK A01 T02200128  RH  056%=      5-min Rain = 0
KMC1 121505Z 27004KT 22/13 A3006 RMK A01 T02210128  RH  055%=      5-min Rain = 0
KMC1 121506Z 26006KT 22/13 A3006 RMK A01 T02220127  RH  055%=      5-min Rain = 0
KMC1 121507Z 26004KT 22/13 A3006 RMK A01 T02230127  RH  054%=      5-min Rain = 0
KMC1 121508Z 26004KT 22/13 A3006 RMK A01 T02240128  RH  055%=      5-min Rain = 0
KMC1 121509Z 25004KT 23/13 A3006 RMK A01 T02250128  RH  054%=      5-min Rain = 0
KMC1 121510Z 26005KT 23/13 A3006 RMK A01 T02270127  RH  053%=      5-min Rain = 0
KMC1 121511Z 24003KT 23/13 A3006 RMK A01 T02270127  RH  053%=      5-min Rain = 0
KMC1 121512Z 25003KT 23/13 A3006 RMK A01 T02280128  RH  053%=      5-min Rain = 0
KMC1 121513Z 24004KT 23/13 A3006 RMK A01 T02300127  RH  052%=      5-min Rain = 0
KMC1 121514Z 24004KT 23/13 A3006 RMK A01 T02310129  RH  052%=      5-min Rain = 0
KMC1 121515Z 24003KT 23/13 A3006 RMK A01 T02330127  RH  051%=      5-min Rain = 0
KMC1 121516Z 26003KT 24/13 A3006 RMK A01 T02350129  RH  052%=      5-min Rain = 0
KMC1 121517Z 26005KT 24/13 A3006 RMK A01 T02370126  RH  050%=      5-min Rain = 0
KMC1 121518Z 25005KT 24/12 A3006 RMK A01 T02370123  RH  049%=      5-min Rain = 0
KMC1 121519Z 25004KT 24/13 A3006 RMK A01 T02360125  RH  049%=      5-min Rain = 0
KMC1 121520Z 26003KT 24/13 A3006 RMK A01 T02370132  RH  052%=      5-min Rain = 0
KMC1 121521Z 26005KT 24/13 A3006 RMK A01 T02380129  RH  050%=      5-min Rain = 0
KMC1 121522Z 26006KT 24/13 A3006 RMK A01 T02400126  RH  049%=      5-min Rain = 0
KMC1 121523Z 27005KT 24/12 A3006 RMK A01 T02400124  RH  048%=      5-min Rain = 0
KMC1 121524Z 26006KT 24/13 A3006 RMK A01 T02390125  RH  049%=      5-min Rain = 0
KMC1 121525Z 27005KT 24/13 A3006 RMK A01 T02390126  RH  049%=      5-min Rain = 0
KMC1 121526Z 26005KT 24/13 A3006 RMK A01 T02390127  RH  049%=      5-min Rain = 0
KMC1 121527Z 26004KT 24/13 A3006 RMK A01 T02400125  RH  049%=      5-min Rain = 0
KMC1 121528Z 27002KT 24/13 A3006 RMK A01 T02410128  RH  049%=      5-min Rain = 0
KMC1 121529Z 27003KT 24/13 A3006 RMK A01 T02430130  RH  049%=      5-min Rain = 0
KMC1 121530Z 28004KT 25/13 A3006 RMK A01 T02450129  RH  048%=      5-min Rain = 0
KMC1 121531Z 25003KT 25/13 A3006 RMK A01 T02460130  RH  048%=      5-min Rain = 0
KMC1 121532Z 25004KT 25/13 A3006 RMK A01 T02460131  RH  049%=      5-min Rain = 0
KMC1 121533Z 27004KT 25/13 A3006 RMK A01 T02460128  RH  048%=      5-min Rain = 0
KMC1 121534Z 27006KT 25/13 A3006 RMK A01 T02460130  RH  048%=      5-min Rain = 0
KMC1 121535Z 27006KT 25/13 A3006 RMK A01 T02460130  RH  048%=      5-min Rain = 0
KMC1 121536Z 29004KT 25/13 A3006 RMK A01 T02460131  RH  049%=      5-min Rain = 0
KMC1 121537Z 29005KT 25/13 A3006 RMK A01 T02460131  RH  049%=      5-min Rain = 0
KMC1 121538Z 29006KT 25/13 A3006 RMK A01 T02470131  RH  049%=      5-min Rain = 0
KMC1 121539Z 29004KT 25/13 A3006 RMK A01 T02470132  RH  049%=      5-min Rain = 0
KMC1 121540Z 28003KT 25/13 A3006 RMK A01 T02480132  RH  049%=      5-min Rain = 0
KMC1 121541Z 29002KT 25/14 A3006 RMK A01 T02490136  RH  049%=      5-min Rain = 0
KMC1 121542Z 29003KT 25/14 A3006 RMK A01 T02500136  RH  049%=      5-min Rain = 0
KMC1 121543Z 31004KT 25/14 A3006 RMK A01 T02510138  RH  049%=      5-min Rain = 0
KMC1 121544Z 30004KT 25/14 A3006 RMK A01 T02510138  RH  049%=      5-min Rain = 0
KMC1 121545Z 29005KT 25/14 A3006 RMK A01 T02510141  RH  050%=      5-min Rain = 0
KMC1 121546Z 30004KT 25/14 A3006 RMK A01 T02530140  RH  050%=      5-min Rain = 0
KMC1 121547Z 30004KT 25/14 A3006 RMK A01 T02540137  RH  048%=      5-min Rain = 0
KMC1 121548Z 29004KT 25/14 A3006 RMK A01 T02540138  RH  049%=      5-min Rain = 0
KMC1 121549Z 28004KT 25/14 A3006 RMK A01 T02540139  RH  049%=      5-min Rain = 0
KMC1 121550Z 29004KT 25/14 A3006 RMK A01 T02540139  RH  049%=      5-min Rain = 0
KMC1 121551Z 28003KT 26/14 A3006 RMK A01 T02550144  RH  050%=      5-min Rain = 0
KMC1 121552Z 29004KT 26/14 A3006 RMK A01 T02560140  RH  049%=      5-min Rain = 0
KMC1 121553Z 30003KT 26/14 A3006 RMK A01 T02570139  RH  048%=      5-min Rain = 0
KMC1 121554Z 31003KT 26/14 A3006 RMK A01 T02560141  RH  049%=      5-min Rain = 0
KMC1 121555Z 31004KT 26/14 A3006 RMK A01 T02560142  RH  049%=      5-min Rain = 0
KMC1 121556Z 31004KT 26/14 A3006 RMK A01 T02580138  RH  047%=      5-min Rain = 0
KMC1 121557Z 29003KT 26/13 A3006 RMK A01 T02570133  RH  046%=      5-min Rain = 0
KMC1 121558Z 30003KT 26/14 A3006 RMK A01 T02560137  RH  048%=      5-min Rain = 0
KMC1 121559Z 29003KT 26/14 A3006 RMK A01 T02560136  RH  047%=      5-min Rain = 0
KMC1 121600Z 26003KT 26/14 A3006 RMK A01 T02570137  RH  047%=      5-min Rain = 0
KMC1 121601Z 29002KT 26/14 A3006 RMK A01 T02590136  RH  047%=      5-min Rain = 0
KMC1 121602Z 30003KT 26/14 A3006 RMK A01 T02600137  RH  047%=      5-min Rain = 0
KMC1 121603Z 30004KT 26/14 A3006 RMK A01 T02610136  RH  046%=      5-min Rain = 0
KMC1 121604Z 30003KT 26/14 A3006 RMK A01 T02620137  RH  046%=      5-min Rain = 0
KMC1 121605Z 29005KT 27/14 A3005 RMK A01 T02650139  RH  046%=      5-min Rain = 0
KMC1 121606Z 28004KT 27/13 A3005 RMK A01 T02660134  RH  044%=      5-min Rain = 0
KMC1 121607Z 29003KT 27/14 A3005 RMK A01 T02660139  RH  046%=      5-min Rain = 0
KMC1 121608Z 31005KT 27/13 A3005 RMK A01 T02680134  RH  044%=      5-min Rain = 0
KMC1 121609Z 28006KT 27/13 A3005 RMK A01 T02680133  RH  043%=      5-min Rain = 0
KMC1 121610Z 29004KT 27/13 A3005 RMK A01 T02680132  RH  043%=      5-min Rain = 0
KMC1 121611Z 29006KT 27/13 A3005 RMK A01 T02690129  RH  042%=      5-min Rain = 0
KMC1 121612Z 29005KT 27/13 A3005 RMK A01 T02680128  RH  042%=      5-min Rain = 0
KMC1 121613Z 29004KT 27/13 A3005 RMK A01 T02670128  RH  042%=      5-min Rain = 0
KMC1 121614Z 27004KT 27/13 A3005 RMK A01 T02680130  RH  043%=      5-min Rain = 0
KMC1 121615Z 25005KT 27/13 A3005 RMK A01 T02680127  RH  042%=      5-min Rain = 0
KMC1 121616Z 28003KT 27/13 A3005 RMK A01 T02690125  RH  041%=      5-min Rain = 0
KMC1 121617Z 32004KT 27/13 A3005 RMK A01 T02680129  RH  042%=      5-min Rain = 0
KMC1 121618Z 30003KT 27/13 A3005 RMK A01 T02680126  RH  041%=      5-min Rain = 0
KMC1 121619Z 27005KT 27/13 A3005 RMK A01 T02690131  RH  042%=      5-min Rain = 0
KMC1 121620Z 28007KT 27/13 A3005 RMK A01 T02710128  RH  041%=      5-min Rain = 0
KMC1 121621Z 27004KT 27/12 A3005 RMK A01 T02710124  RH  040%=      5-min Rain = 0
KMC1 121622Z 27006KT 27/13 A3005 RMK A01 T02700128  RH  041%=      5-min Rain = 0
KMC1 121623Z 29006KT 27/13 A3005 RMK A01 T02700127  RH  041%=      5-min Rain = 0
KMC1 121624Z 30006KT 27/12 A3005 RMK A01 T02700123  RH  040%=      5-min Rain = 0
KMC1 121625Z 31005KT 27/12 A3005 RMK A01 T02690121  RH  040%=      5-min Rain = 0
KMC1 121626Z 28002KT 27/12 A3005 RMK A01 T02690124  RH  041%=      5-min Rain = 0
KMC1 121627Z 24002KT 27/13 A3005 RMK A01 T02700125  RH  041%=      5-min Rain = 0
KMC1 121628Z 28003KT 27/13 A3005 RMK A01 T02720127  RH  041%=      5-min Rain = 0
KMC1 121629Z 28007KT 27/13 A3005 RMK A01 T02730128  RH  041%=      5-min Rain = 0
KMC1 121630Z 27005KT 27/13 A3005 RMK A01 T02740125  RH  040%=      5-min Rain = 0
KMC1 121631Z 27006KT 28/12 A3005 RMK A01 T02750119  RH  038%=      5-min Rain = 0
KMC1 121632Z 29005KT 27/12 A3005 RMK A01 T02740124  RH  039%=      5-min Rain = 0
KMC1 121633Z 29005KT 27/12 A3005 RMK A01 T02740123  RH  039%=      5-min Rain = 0
KMC1 121634Z 30005KT 27/12 A3005 RMK A01 T02740120  RH  038%=      5-min Rain = 0
KMC1 121635Z 27005KT 27/12 A3004 RMK A01 T02730118  RH  038%=      5-min Rain = 0
KMC1 121636Z 26003KT 27/12 A3004 RMK A01 T02720120  RH  039%=      5-min Rain = 0
KMC1 121637Z 27006KT 27/12 A3004 RMK A01 T02710122  RH  040%=      5-min Rain = 0
KMC1 121638Z 27004KT 27/12 A3004 RMK A01 T02720121  RH  039%=      5-min Rain = 0
KMC1 121639Z 28002KT 27/13 A3004 RMK A01 T02720127  RH  041%=      5-min Rain = 0
KMC1 121640Z 24003KT 27/13 A3004 RMK A01 T02730129  RH  041%=      5-min Rain = 0
KMC1 121641Z 25004KT 28/13 A3004 RMK A01 T02760127  RH  040%=      5-min Rain = 0
KMC1 121642Z 24003KT 28/12 A3004 RMK A01 T02760121  RH  038%=      5-min Rain = 0
KMC1 121643Z 25001KT 28/12 A3004 RMK A01 T02750120  RH  038%=      5-min Rain = 0
KMC1 121644Z 32003KT 27/12 A3004 RMK A01 T02740124  RH  040%=      5-min Rain = 0
KMC1 121645Z 30004KT 27/12 A3004 RMK A01 T02740123  RH  039%=      5-min Rain = 0
KMC1 121646Z 31003KT 27/13 A3004 RMK A01 T02740125  RH  039%=      5-min Rain = 0
KMC1 121647Z 31005KT 27/12 A3004 RMK A01 T02740122  RH  039%=      5-min Rain = 0
KMC1 121648Z 25003KT 27/12 A3004 RMK A01 T02740123  RH  039%=      5-min Rain = 0
KMC1 121649Z 25001KT 27/12 A3004 RMK A01 T02730120  RH  039%=      5-min Rain = 0
KMC1 121650Z 32001KT 27/12 A3004 RMK A01 T02730121  RH  039%=      5-min Rain = 0
KMC1 121651Z 30002KT 27/12 A3004 RMK A01 T02730122  RH  039%=      5-min Rain = 0
KMC1 121652Z 29006KT 27/12 A3004 RMK A01 T02740123  RH  039%=      5-min Rain = 0
KMC1 121653Z 29005KT 28/13 A3004 RMK A01 T02750125  RH  039%=      5-min Rain = 0
KMC1 121654Z 32004KT 28/12 A3004 RMK A01 T02760121  RH  038%=      5-min Rain = 0
KMC1 121655Z 33004KT 28/12 A3004 RMK A01 T02750119  RH  038%=      5-min Rain = 0
KMC1 121656Z 31005KT 28/13 A3004 RMK A01 T02750126  RH  040%=      5-min Rain = 0
KMC1 121657Z 28005KT 28/12 A3004 RMK A01 T02770123  RH  038%=      5-min Rain = 0
KMC1 121658Z 27003KT 28/12 A3004 RMK A01 T02770122  RH  038%=      5-min Rain = 0
KMC1 121659Z 27004KT 28/12 A3004 RMK A01 T02770121  RH  038%=      5-min Rain = 0
KMC1 121700Z 29002KT 28/12 A3004 RMK A01 T02760120  RH  038%=      5-min Rain = 0
KMC1 121701Z 29002KT 28/12 A3004 RMK A01 T02760124  RH  039%=      5-min Rain = 0
KMC1 121702Z 28003KT 28/13 A3004 RMK A01 T02790129  RH  040%=      5-min Rain = 0
KMC1 121703Z 33003KT 28/12 A3004 RMK A01 T02800121  RH  037%=      5-min Rain = 0
KMC1 121704Z 03002KT 28/12 A3004 RMK A01 T02790124  RH  038%=      5-min Rain = 0
KMC1 121705Z 01000KT 28/12 A3004 RMK A01 T02790123  RH  038%=      5-min Rain = 0
KMC1 121706Z 09001KT 28/12 A3004 RMK A01 T02790119  RH  037%=      5-min Rain = 0
KMC1 121707Z 31001KT 28/12 A3004 RMK A01 T02770121  RH  038%=      5-min Rain = 0
KMC1 121708Z 28004KT 28/13 A3004 RMK A01 T02780127  RH  039%=      5-min Rain = 0
KMC1 121709Z 28005KT 28/13 A3004 RMK A01 T02810127  RH  039%=      5-min Rain = 0
KMC1 121710Z 26003KT 28/12 A3003 RMK A01 T02830124  RH  037%=      5-min Rain = 0
KMC1 121711Z 25003KT 29/13 A3003 RMK A01 T02850126  RH  037%=      5-min Rain = 0
KMC1 121712Z 28004KT 29/12 A3003 RMK A01 T02860123  RH  036%=      5-min Rain = 0
KMC1 121713Z 28004KT 29/13 A3003 RMK A01 T02860126  RH  037%=      5-min Rain = 0
KMC1 121714Z 29006KT 29/12 A3003 RMK A01 T02860119  RH  036%=      5-min Rain = 0
KMC1 121715Z 30006KT 29/12 A3003 RMK A01 T02850118  RH  036%=      5-min Rain = 0
KMC1 121716Z 32004KT 28/12 A3003 RMK A01 T02830122  RH  037%=      5-min Rain = 0
KMC1 121717Z 33007KT 28/12 A3003 RMK A01 T02830115  RH  035%=      5-min Rain = 0
KMC1 121718Z 33004KT 28/11 A3003 RMK A01 T02830110  RH  034%=      5-min Rain = 0
KMC1 121719Z 32005KT 29/11 A3003 RMK A01 T02850113  RH  035%=      5-min Rain = 0
KMC1 121720Z 32004KT 29/11 A3003 RMK A01 T02860114  RH  034%=      5-min Rain = 0
KMC1 121721Z 32003KT 29/11 A3003 RMK A01 T02860114  RH  034%=      5-min Rain = 0
KMC1 121722Z 01003KT 29/12 A3003 RMK A01 T02860116  RH  035%=      5-min Rain = 0
KMC1 121723Z 36003KT 29/12 A3003 RMK A01 T02870120  RH  036%=      5-min Rain = 0
KMC1 121724Z 32003KT 29/13 A3003 RMK A01 T02890126  RH  036%=      5-min Rain = 0
KMC1 121725Z 34006KT 29/12 A3003 RMK A01 T02920119  RH  034%=      5-min Rain = 0
KMC1 121726Z 31006KT 29/12 A3003 RMK A01 T02920122  RH  035%=      5-min Rain = 0
KMC1 121727Z 31004KT 29/12 A3003 RMK A01 T02930117  RH  034%=      5-min Rain = 0
KMC1 121728Z 31005KT 29/11 A3003 RMK A01 T02940111  RH  032%=      5-min Rain = 0
KMC1 121729Z 32008KT 29/11 A3003 RMK A01 T02920114  RH  033%=      5-min Rain = 0
KMC1 121730Z 30008KT 29/12 A3003 RMK A01 T02920120  RH  035%=      5-min Rain = 0
KMC1 121731Z 29008KT 29/12 A3003 RMK A01 T02940118  RH  034%=      5-min Rain = 0
KMC1 121732Z 31007KT 30/12 A3003 RMK A01 T02950121  RH  034%=      5-min Rain = 0
KMC1 121733Z 33006KT 30/12 A3003 RMK A01 T02960115  RH  033%=      5-min Rain = 0
KMC1 121734Z 32006KT 30/11 A3003 RMK A01 T02950112  RH  032%=      5-min Rain = 0
KMC1 121735Z 29006KT 29/11 A3003 RMK A01 T02920113  RH  033%=      5-min Rain = 0
KMC1 121736Z 29005KT 29/11 A3003 RMK A01 T02900111  RH  033%=      5-min Rain = 0
KMC1 121737Z 31002KT 29/11 A3003 RMK A01 T02880113  RH  034%=      5-min Rain = 0
KMC1 121738Z 31003KT 29/12 A3002 RMK A01 T02880118  RH  035%=      5-min Rain = 0
KMC1 121739Z 30007KT 29/12 A3003 RMK A01 T02900118  RH  035%=      5-min Rain = 0
KMC1 121740Z 30004KT 29/12 A3002 RMK A01 T02930120  RH  034%=      5-min Rain = 0
KMC1 121741Z 30006KT 30/12 A3002 RMK A01 T02950121  RH  034%=      5-min Rain = 0
KMC1 121742Z 35005KT 30/12 A3002 RMK A01 T02970118  RH  033%=      5-min Rain = 0
KMC1 121743Z 34004KT 30/11 A3002 RMK A01 T02960110  RH  032%=      5-min Rain = 0
KMC1 121744Z 32004KT 29/11 A3002 RMK A01 T02930112  RH  033%=      5-min Rain = 0
KMC1 121745Z 32007KT 29/12 A3002 RMK A01 T02920117  RH  034%=      5-min Rain = 0
KMC1 121746Z 33009KT 29/11 A3002 RMK A01 T02930110  RH  032%=      5-min Rain = 0
KMC1 121747Z 33005KT 29/11 A3002 RMK A01 T02920108  RH  032%=      5-min Rain = 0
KMC1 121748Z 34005KT 29/11 A3002 RMK A01 T02910111  RH  033%=      5-min Rain = 0
KMC1 121749Z 34005KT 29/11 A3002 RMK A01 T02920110  RH  032%=      5-min Rain = 0
KMC1 121750Z 34003KT 29/11 A3002 RMK A01 T02920108  RH  032%=      5-min Rain = 0
KMC1 121751Z 35004KT 29/11 A3002 RMK A01 T02920110  RH  032%=      5-min Rain = 0
KMC1 121752Z 33005KT 29/11 A3002 RMK A01 T02910111  RH  033%=      5-min Rain = 0
KMC1 121753Z 33004KT 29/11 A3002 RMK A01 T02920114  RH  033%=      5-min Rain = 0
KMC1 121754Z 31003KT 29/11 A3002 RMK A01 T02940113  RH  033%=      5-min Rain = 0
KMC1 121755Z 33005KT 30/12 A3001 RMK A01 T02960117  RH  033%=      5-min Rain = 0
KMC1 121756Z 33006KT 30/11 A3001 RMK A01 T02980114  RH  032%=      5-min Rain = 0
KMC1 121757Z 00003KT 30/11 A3001 RMK A01 T02970113  RH  032%=      5-min Rain = 0
KMC1 121758Z 35003KT 30/11 A3001 RMK A01 T02950113  RH  032%=      5-min Rain = 0
KMC1 121759Z 29003KT 30/12 A3001 RMK A01 T02970121  RH  034%=      5-min Rain = 0
KMC1 121800Z 28004KT 30/12 A3001 RMK A01 T03000118  RH  033%=      5-min Rain = 0
KMC1 121801Z 30007KT 30/12 A3001 RMK A01 T03010117  RH  032%=      5-min Rain = 0
KMC1 121802Z 30005KT 30/11 A3001 RMK A01 T03010113  RH  031%=      5-min Rain = 0
KMC1 121803Z 30005KT 30/12 A3001 RMK A01 T03000119  RH  033%=      5-min Rain = 0
KMC1 121804Z 34006KT 30/12 A3001 RMK A01 T03000117  RH  032%=      5-min Rain = 0
KMC1 121805Z 33008KT 30/11 A3001 RMK A01 T03000113  RH  032%=      5-min Rain = 0
KMC1 121806Z 33008KT 30/12 A3001 RMK A01 T02990115  RH  032%=      5-min Rain = 0
KMC1 121807Z 30006KT 30/11 A3001 RMK A01 T02980113  RH  032%=      5-min Rain = 0
KMC1 121808Z 32006KT 30/11 A3001 RMK A01 T02980114  RH  032%=      5-min Rain = 0
KMC1 121809Z 34009KT 30/11 A3001 RMK A01 T02990113  RH  032%=      5-min Rain = 0
KMC1 121810Z 32007KT 30/11 A3001 RMK A01 T02980110  RH  031%=      5-min Rain = 0
KMC1 121811Z 32004KT 30/12 A3001 RMK A01 T02970115  RH  032%=      5-min Rain = 0
KMC1 121812Z 30007KT 30/11 A30 RMK A01 T02990114  RH  032%=      5-min Rain = 0
KMC1 121813Z 34009KT 30/11 A30 RMK A01 T03020109  RH  030%=      5-min Rain = 0
KMC1 121814Z 33006KT 30/11 A30 RMK A01 T03030109  RH  030%=      5-min Rain = 0
KMC1 121815Z 33008KT 31/11 A30 RMK A01 T03060111  RH  030%=      5-min Rain = 0
KMC1 121816Z 32007KT 31/10 A30 RMK A01 T03070103  RH  028%=      5-min Rain = 0
KMC1 121817Z 32005KT 30/10 A30 RMK A01 T03040101  RH  028%=      5-min Rain = 0
KMC1 121818Z 34007KT 30/11 A30 RMK A01 T03020107  RH  030%=      5-min Rain = 0
KMC1 121819Z 34009KT 30/11 A30 RMK A01 T03020108  RH  030%=      5-min Rain = 0
KMC1 121820Z 35007KT 30/11 A30 RMK A01 T03010107  RH  030%=      5-min Rain = 0
KMC1 121821Z 33005KT 30/11 A30 RMK A01 T03000106  RH  030%=      5-min Rain = 0
KMC1 121822Z 31006KT 30/12 A30 RMK A01 T02990115  RH  032%=      5-min Rain = 0
KMC1 121823Z 31005KT 30/11 A30 RMK A01 T03020111  RH  031%=      5-min Rain = 0
KMC1 121824Z 33002KT 30/11 A30 RMK A01 T03030107  RH  030%=      5-min Rain = 0
KMC1 121825Z 01006G11KT 30/11 A30 RMK A01 T03020106  RH  030%=      5-min Rain = 0
KMC1 121826Z 32005KT 30/11 A30 RMK A01 T03000108  RH  031%=      5-min Rain = 0
KMC1 121827Z 35005KT 30/11 A30 RMK A01 T02990110  RH  031%=      5-min Rain = 0
KMC1 121828Z 35007KT 30/12 A30 RMK A01 T03000116  RH  032%=      5-min Rain = 0
KMC1 121829Z 35007KT 30/11 A30 RMK A01 T03030113  RH  031%=      5-min Rain = 0
KMC1 121830Z 33004KT 30/11 A30 RMK A01 T03030110  RH  030%=      5-min Rain = 0
KMC1 121831Z 30004KT 30/11 A30 RMK A01 T03020113  RH  031%=      5-min Rain = 0
KMC1 121832Z 29005KT 30/11 A30 RMK A01 T03020112  RH  031%=      5-min Rain = 0
KMC1 121833Z 31005KT 30/12 A30 RMK A01 T03030118  RH  032%=      5-min Rain = 0
KMC1 121834Z 31006KT 31/11 A30 RMK A01 T03060112  RH  030%=      5-min Rain = 0
KMC1 121835Z 32009KT 31/12 A30 RMK A01 T03070117  RH  031%=      5-min Rain = 0
KMC1 121836Z 31009KT 31/11 A30 RMK A01 T03070114  RH  031%=      5-min Rain = 0
KMC1 121837Z 31008KT 31/12 A30 RMK A01 T03060115  RH  031%=      5-min Rain = 0
KMC1 121838Z 31005KT 31/12 A30 RMK A01 T03050116  RH  031%=      5-min Rain = 0
KMC1 121839Z 32004KT 31/12 A30 RMK A01 T03050117  RH  031%=      5-min Rain = 0
KMC1 121840Z 29006KT 31/11 A30 RMK A01 T03050114  RH  031%=      5-min Rain = 0
KMC1 121841Z 29006KT 31/12 A2999 RMK A01 T03050118  RH  032%=      5-min Rain = 0
KMC1 121842Z 27005KT 31/12 A2999 RMK A01 T03060122  RH  032%=      5-min Rain = 0
KMC1 121843Z 26006KT 31/12 A2999 RMK A01 T03080120  RH  032%=      5-min Rain = 0
KMC1 121844Z 29004KT 31/12 A2999 RMK A01 T03080123  RH  032%=      5-min Rain = 0
KMC1 121845Z 31005KT 31/12 A2999 RMK A01 T03100121  RH  031%=      5-min Rain = 0
KMC1 121846Z 32005KT 31/12 A2999 RMK A01 T03100119  RH  031%=      5-min Rain = 0
KMC1 121847Z 32003KT 31/12 A2999 RMK A01 T03090118  RH  031%=      5-min Rain = 0
KMC1 121848Z 31005KT 31/12 A2999 RMK A01 T03080118  RH  031%=      5-min Rain = 0
KMC1 121849Z 34006KT 31/12 A2999 RMK A01 T03090121  RH  031%=      5-min Rain = 0
KMC1 121850Z 36008KT 31/12 A2999 RMK A01 T03100117  RH  031%=      5-min Rain = 0
KMC1 121851Z 36008KT 31/12 A2999 RMK A01 T03090117  RH  031%=      5-min Rain = 0
KMC1 121852Z 35007KT 31/12 A2999 RMK A01 T03080115  RH  031%=      5-min Rain = 0
KMC1 121853Z 35007KT 31/12 A2999 RMK A01 T03060118  RH  031%=      5-min Rain = 0
KMC1 121854Z 33009KT 31/12 A2999 RMK A01 T03060121  RH  032%=      5-min Rain = 0
KMC1 121855Z 32008KT 31/12 A2999 RMK A01 T03080119  RH  031%=      5-min Rain = 0
KMC1 121856Z 29007KT 31/12 A2999 RMK A01 T03080117  RH  031%=      5-min Rain = 0
KMC1 121857Z 30007KT 31/12 A2999 RMK A01 T03090121  RH  032%=      5-min Rain = 0
KMC1 121858Z 30007KT 31/12 A2999 RMK A01 T03100118  RH  031%=      5-min Rain = 0
KMC1 121859Z 29007KT 31/12 A2999 RMK A01 T03100118  RH  031%=      5-min Rain = 0
KMC1 121900Z 30008KT 31/12 A2999 RMK A01 T03100120  RH  031%=      5-min Rain = 0
KMC1 121901Z 30008KT 31/12 A2999 RMK A01 T03100120  RH  031%=      5-min Rain = 0
KMC1 121902Z 29007KT 31/12 A2999 RMK A01 T03100119  RH  031%=      5-min Rain = 0
KMC1 121903Z 29003KT 31/11 A2998 RMK A01 T03090114  RH  030%=      5-min Rain = 0
KMC1 121904Z 25003KT 31/12 A2998 RMK A01 T03060117  RH  031%=      5-min Rain = 0
KMC1 121905Z 29002KT 31/12 A2998 RMK A01 T03060118  RH  032%=      5-min Rain = 0
KMC1 121906Z 32003KT 31/12 A2998 RMK A01 T03060117  RH  031%=      5-min Rain = 0
KMC1 121907Z 30004KT 31/12 A2998 RMK A01 T03050115  RH  031%=      5-min Rain = 0
KMC1 121908Z 32005KT 30/12 A2998 RMK A01 T03040120  RH  032%=      5-min Rain = 0
KMC1 121909Z 35002KT 31/12 A2998 RMK A01 T03050118  RH  032%=      5-min Rain = 0
KMC1 121910Z 32002KT 31/12 A2998 RMK A01 T03070122  RH  032%=      5-min Rain = 0
KMC1 121911Z 28002KT 31/12 A2998 RMK A01 T03080120  RH  031%=      5-min Rain = 0
KMC1 121912Z 32003KT 31/12 A2997 RMK A01 T03090119  RH  031%=      5-min Rain = 0
KMC1 121913Z 30005KT 31/12 A2997 RMK A01 T03100122  RH  032%=      5-min Rain = 0
KMC1 121914Z 30004KT 31/12 A2997 RMK A01 T03100123  RH  032%=      5-min Rain = 0
KMC1 121915Z 28005KT 31/13 A2997 RMK A01 T03110125  RH  032%=      5-min Rain = 0
KMC1 121916Z 32006KT 31/12 A2997 RMK A01 T03110117  RH  030%=      5-min Rain = 0
KMC1 121917Z 30003KT 31/12 A2997 RMK A01 T03090115  RH  030%=      5-min Rain = 0
KMC1 121918Z 33004KT 31/12 A2997 RMK A01 T03060117  RH  031%=      5-min Rain = 0
KMC1 121919Z 32003KT 31/12 A2997 RMK A01 T03060115  RH  031%=      5-min Rain = 0
KMC1 121920Z 32008KT 31/12 A2997 RMK A01 T03070120  RH  032%=      5-min Rain = 0
KMC1 121921Z 31006KT 31/12 A2997 RMK A01 T03090118  RH  031%=      5-min Rain = 0
KMC1 121922Z 33005KT 31/12 A2997 RMK A01 T03110118  RH  031%=      5-min Rain = 0
KMC1 121923Z 32005KT 31/12 A2997 RMK A01 T03120119  RH  031%=      5-min Rain = 0
KMC1 121924Z 34007KT 31/12 A2997 RMK A01 T03130118  RH  030%=      5-min Rain = 0
KMC1 121925Z 00009KT 31/11 A2997 RMK A01 T03130112  RH  029%=      5-min Rain = 0
KMC1 121926Z 01011KT 31/11 A2997 RMK A01 T03130110  RH  029%=      5-min Rain = 0
KMC1 121927Z 00007KT 31/11 A2997 RMK A01 T03110109  RH  029%=      5-min Rain = 0
KMC1 121928Z 35007KT 31/11 A2997 RMK A01 T03100113  RH  030%=      5-min Rain = 0
KMC1 121929Z 35007KT 31/11 A2997 RMK A01 T03110110  RH  029%=      5-min Rain = 0
KMC1 121930Z 33005KT 31/11 A2997 RMK A01 T03110106  RH  028%=      5-min Rain = 0
KMC1 121931Z 30004KT 31/11 A2997 RMK A01 T03090109  RH  029%=      5-min Rain = 0
KMC1 121932Z 01003KT 31/11 A2997 RMK A01 T03090113  RH  030%=      5-min Rain = 0
KMC1 121933Z 03007KT 31/12 A2996 RMK A01 T03120117  RH  030%=      5-min Rain = 0
KMC1 121934Z 03008KT 32/12 A2996 RMK A01 T03170115  RH  029%=      5-min Rain = 0
KMC1 121935Z 05006KT 32/11 A2996 RMK A01 T03190113  RH  028%=      5-min Rain = 0
KMC1 121936Z 04006KT 32/11 A2996 RMK A01 T03180114  RH  029%=      5-min Rain = 0
KMC1 121937Z 01006KT 32/12 A2996 RMK A01 T03170117  RH  029%=      5-min Rain = 0
KMC1 121938Z 32008KT 32/12 A2996 RMK A01 T03170117  RH  029%=      5-min Rain = 0
KMC1 121939Z 33009KT 32/12 A2996 RMK A01 T03180119  RH  030%=      5-min Rain = 0
KMC1 121940Z 33007G12KT 32/12 A2996 RMK A01 T03180116  RH  029%=      5-min Rain = 0
KMC1 121941Z 31005KT 32/11 A2996 RMK A01 T03160113  RH  029%=      5-min Rain = 0
KMC1 121942Z 32003KT 31/11 A2996 RMK A01 T03130113  RH  029%=      5-min Rain = 0
KMC1 121943Z 30002KT 31/11 A2996 RMK A01 T03130109  RH  029%=      5-min Rain = 0
KMC1 121944Z 33003KT 31/12 A2996 RMK A01 T03120115  RH  030%=      5-min Rain = 0
KMC1 121945Z 32009KT 31/12 A2996 RMK A01 T03140117  RH  030%=      5-min Rain = 0
KMC1 121946Z 33007KT 32/11 A2996 RMK A01 T03160114  RH  029%=      5-min Rain = 0
KMC1 121947Z 36011KT 32/12 A2996 RMK A01 T03160117  RH  030%=      5-min Rain = 0
KMC1 121948Z 01009KT 32/11 A2996 RMK A01 T03150113  RH  029%=      5-min Rain = 0
KMC1 121949Z 01009KT 31/11 A2996 RMK A01 T03130112  RH  029%=      5-min Rain = 0
KMC1 121950Z 01007KT 31/11 A2996 RMK A01 T03130114  RH  030%=      5-min Rain = 0
KMC1 121951Z 35009KT 31/11 A2996 RMK A01 T03130114  RH  029%=      5-min Rain = 0
KMC1 121952Z 34009KT 31/11 A2996 RMK A01 T03140114  RH  029%=      5-min Rain = 0
KMC1 121953Z 36006KT 32/11 A2996 RMK A01 T03150111  RH  029%=      5-min Rain = 0
KMC1 121954Z 36009KT 32/11 A2996 RMK A01 T03150114  RH  029%=      5-min Rain = 0
KMC1 121955Z 00008G13KT 32/11 A2996 RMK A01 T03160113  RH  029%=      5-min Rain = 0
KMC1 121956Z 33007KT 32/11 A2995 RMK A01 T03180113  RH  028%=      5-min Rain = 0
KMC1 121957Z 34010KT 32/11 A2995 RMK A01 T03190111  RH  028%=      5-min Rain = 0
KMC1 121958Z 35010KT 32/11 A2995 RMK A01 T03170111  RH  028%=      5-min Rain = 0
KMC1 121959Z 36010KT 32/11 A2995 RMK A01 T03170112  RH  028%=      5-min Rain = 0
KMC1 122000Z 35009KT 32/11 A2995 RMK A01 T03160112  RH  028%=      5-min Rain = 0
KMC1 122001Z 36008KT 32/11 A2995 RMK A01 T03150112  RH  029%=      5-min Rain = 0
KMC1 122002Z 00009KT 31/11 A2995 RMK A01 T03140113  RH  029%=      5-min Rain = 0
KMC1 122003Z 33004KT 31/11 A2995 RMK A01 T03140107  RH  028%=      5-min Rain = 0
KMC1 122004Z 35005KT 31/12 A2995 RMK A01 T03130115  RH  030%=      5-min Rain = 0
KMC1 122005Z 35007KT 32/11 A2995 RMK A01 T03160114  RH  029%=      5-min Rain = 0
KMC1 122006Z 36005KT 32/11 A2995 RMK A01 T03160111  RH  028%=      5-min Rain = 0
KMC1 122007Z 35008KT 32/12 A2995 RMK A01 T03160118  RH  030%=      5-min Rain = 0
KMC1 122008Z 35009KT 32/11 A2995 RMK A01 T03200114  RH  028%=      5-min Rain = 0
KMC1 122009Z 00008KT 32/11 A2995 RMK A01 T03200110  RH  028%=      5-min Rain = 0
KMC1 122010Z 35009KT 32/11 A2995 RMK A01 T03190110  RH  028%=      5-min Rain = 0
KMC1 122011Z 01009KT 32/11 A2995 RMK A01 T03180111  RH  028%=      5-min Rain = 0
KMC1 122012Z 01007KT 32/11 A2994 RMK A01 T03190111  RH  028%=      5-min Rain = 0
KMC1 122013Z 00007KT 32/11 A2994 RMK A01 T03200110  RH  028%=      5-min Rain = 0
KMC1 122014Z 33005KT 32/11 A2994 RMK A01 T03180111  RH  028%=      5-min Rain = 0
KMC1 122015Z 33006KT 32/11 A2994 RMK A01 T03180113  RH  028%=      5-min Rain = 0
KMC1 122016Z 32008KT 32/11 A2994 RMK A01 T03170109  RH  028%=      5-min Rain = 0
KMC1 122017Z 34008KT 32/12 A2994 RMK A01 T03150117  RH  030%=      5-min Rain = 0
KMC1 122018Z 36005KT 32/12 A2994 RMK A01 T03180119  RH  030%=      5-min Rain = 0
KMC1 122019Z 34006KT 32/12 A2994 RMK A01 T03210121  RH  030%=      5-min Rain = 0
KMC1 122020Z 35007KT 32/12 A2994 RMK A01 T03220116  RH  028%=      5-min Rain = 0
KMC1 122021Z 35007KT 32/11 A2994 RMK A01 T03200114  RH  028%=      5-min Rain = 0
KMC1 122022Z 34006KT 32/11 A2994 RMK A01 T03190114  RH  028%=      5-min Rain = 0
KMC1 122023Z 34009G15KT 32/12 A2994 RMK A01 T03190115  RH  029%=      5-min Rain = 0
KMC1 122024Z 01006KT 32/12 A2994 RMK A01 T03190116  RH  029%=      5-min Rain = 0
KMC1 122025Z 00008KT 32/12 A2994 RMK A01 T03210115  RH  028%=      5-min Rain = 0
KMC1 122026Z 35011KT 32/12 A2994 RMK A01 T03220116  RH  028%=      5-min Rain = 0
KMC1 122027Z 35008KT 32/11 A2994 RMK A01 T03210113  RH  028%=      5-min Rain = 0
KMC1 122028Z 01008KT 32/11 A2994 RMK A01 T03210114  RH  028%=      5-min Rain = 0
KMC1 122029Z 00008KT 32/11 A2994 RMK A01 T03190109  RH  027%=      5-min Rain = 0
KMC1 122030Z 33006KT 32/11 A2994 RMK A01 T03170111  RH  028%=      5-min Rain = 0
KMC1 122031Z 32005KT 32/11 A2994 RMK A01 T03160110  RH  028%=      5-min Rain = 0
KMC1 122032Z 34005KT 32/11 A2994 RMK A01 T03150113  RH  029%=      5-min Rain = 0
KMC1 122033Z 00008KT 32/12 A2993 RMK A01 T03170115  RH  029%=      5-min Rain = 0
KMC1 122034Z 02008KT 32/11 A2993 RMK A01 T03180112  RH  028%=      5-min Rain = 0
KMC1 122035Z 02007KT 32/11 A2993 RMK A01 T03180110  RH  028%=      5-min Rain = 0
KMC1 122036Z 03005KT 32/11 A2993 RMK A01 T03170111  RH  028%=      5-min Rain = 0
KMC1 122037Z 36003KT 32/11 A2993 RMK A01 T03170110  RH  028%=      5-min Rain = 0
KMC1 122038Z 01006G11KT 32/11 A2993 RMK A01 T03170114  RH  029%=      5-min Rain = 0
KMC1 122039Z 35009KT 32/12 A2993 RMK A01 T03210119  RH  029%=      5-min Rain = 0
KMC1 122040Z 34007KT 32/12 A2993 RMK A01 T03230116  RH  028%=      5-min Rain = 0
KMC1 122041Z 36008KT 32/12 A2993 RMK A01 T03230116  RH  028%=      5-min Rain = 0
KMC1 122042Z 33008KT 32/12 A2993 RMK A01 T03240115  RH  028%=      5-min Rain = 0
KMC1 122043Z 31008KT 32/11 A2993 RMK A01 T03220114  RH  028%=      5-min Rain = 0
KMC1 122044Z 33007KT 32/11 A2993 RMK A01 T03220114  RH  028%=      5-min Rain = 0
KMC1 122045Z 34006KT 32/11 A2993 RMK A01 T03210114  RH  028%=      5-min Rain = 0
KMC1 122046Z 35005KT 32/11 A2993 RMK A01 T03190113  RH  028%=      5-min Rain = 0
KMC1 122047Z 33006KT 32/11 A2993 RMK A01 T03180113  RH  029%=      5-min Rain = 0
KMC1 122048Z 32006KT 32/11 A2993 RMK A01 T03180113  RH  029%=      5-min Rain = 0
KMC1 122049Z 02006KT 32/12 A2993 RMK A01 T03190120  RH  030%=      5-min Rain = 0
KMC1 122050Z 02006KT 32/12 A2993 RMK A01 T03210115  RH  028%=      5-min Rain = 0
KMC1 122051Z 00006KT 32/11 A2993 RMK A01 T03210114  RH  028%=      5-min Rain = 0
KMC1 122052Z 00009KT 32/12 A2993 RMK A01 T03200116  RH  029%=      5-min Rain = 0
KMC1 122053Z 01011KT 32/12 A2992 RMK A01 T03200117  RH  029%=      5-min Rain = 0
KMC1 122054Z 02011KT 32/11 A2992 RMK A01 T03200113  RH  028%=      5-min Rain = 0
KMC1 122055Z 02009KT 32/11 A2992 RMK A01 T03180112  RH  028%=      5-min Rain = 0
KMC1 122056Z 01008KT 32/11 A2992 RMK A01 T03170114  RH  029%=      5-min Rain = 0
KMC1 122057Z 35010KT 32/11 A2992 RMK A01 T03180114  RH  029%=      5-min Rain = 0
KMC1 122058Z 00009KT 32/11 A2992 RMK A01 T03180112  RH  028%=      5-min Rain = 0
KMC1 122059Z 00007KT 32/12 A2992 RMK A01 T03170115  RH  029%=      5-min Rain = 0
KMC1 122100Z 35008KT 32/12 A2992 RMK A01 T03180117  RH  029%=      5-min Rain = 0
KMC1 122101Z 00007KT 32/12 A2992 RMK A01 T03180115  RH  029%=      5-min Rain = 0
KMC1 122102Z 36004KT 32/11 A2992 RMK A01 T03180111  RH  028%=      5-min Rain = 0
KMC1 122103Z 34005KT 32/11 A2992 RMK A01 T03150112  RH  029%=      5-min Rain = 0
KMC1 122104Z 32006KT 32/12 A2992 RMK A01 T03150116  RH  030%=      5-min Rain = 0
KMC1 122105Z 32006KT 32/11 A2992 RMK A01 T03160113  RH  029%=      5-min Rain = 0
KMC1 122106Z 34004KT 32/12 A2992 RMK A01 T03150115  RH  029%=      5-min Rain = 0
KMC1 122107Z 01004KT 32/12 A2992 RMK A01 T03160117  RH  030%=      5-min Rain = 0
KMC1 122108Z 35007KT 32/12 A2992 RMK A01 T03180118  RH  030%=      5-min Rain = 0
KMC1 122109Z 35009KT 32/12 A2992 RMK A01 T03190116  RH  029%=      5-min Rain = 0
KMC1 122110Z 35010KT 32/11 A2992 RMK A01 T03190114  RH  028%=      5-min Rain = 0
KMC1 122111Z 01009KT 32/11 A2992 RMK A01 T03190113  RH  028%=      5-min Rain = 0
KMC1 122112Z 02006KT 32/11 A2992 RMK A01 T03180110  RH  028%=      5-min Rain = 0
KMC1 122113Z 00006KT 32/11 A2992 RMK A01 T03170114  RH  029%=      5-min Rain = 0
KMC1 122114Z 34006KT 32/12 A2992 RMK A01 T03170117  RH  029%=      5-min Rain = 0
KMC1 122115Z 35008KT 32/12 A2992 RMK A01 T03200119  RH  029%=      5-min Rain = 0
KMC1 122116Z 33007KT 32/12 A2992 RMK A01 T03210116  RH  029%=      5-min Rain = 0
KMC1 122117Z 35005KT 32/12 A2992 RMK A01 T03210118  RH  029%=      5-min Rain = 0
KMC1 122118Z 01006KT 32/12 A2992 RMK A01 T03200115  RH  029%=      5-min Rain = 0
KMC1 122119Z 01005KT 32/11 A2991 RMK A01 T03180113  RH  028%=      5-min Rain = 0
KMC1 122120Z 35003KT 32/12 A2991 RMK A01 T03160117  RH  030%=      5-min Rain = 0
KMC1 122121Z 30003KT 32/12 A2991 RMK A01 T03170120  RH  030%=      5-min Rain = 0
KMC1 122122Z 31004KT 32/11 A2991 RMK A01 T03180113  RH  028%=      5-min Rain = 0
KMC1 122123Z 32007KT 32/12 A2991 RMK A01 T03190116  RH  029%=      5-min Rain = 0
KMC1 122124Z 32007KT 32/12 A2991 RMK A01 T03190118  RH  029%=      5-min Rain = 0
KMC1 122125Z 33009KT 32/12 A2991 RMK A01 T03190118  RH  029%=      5-min Rain = 0
KMC1 122126Z 34009KT 32/12 A2991 RMK A01 T03190115  RH  029%=      5-min Rain = 0
KMC1 122127Z 35008KT 32/12 A2991 RMK A01 T03180115  RH  029%=      5-min Rain = 0
KMC1 122128Z 02008KT 32/12 A2991 RMK A01 T03180115  RH  029%=      5-min Rain = 0
KMC1 122129Z 35007KT 32/12 A2991 RMK A01 T03180118  RH  029%=      5-min Rain = 0
KMC1 122130Z 35009KT 32/12 A2991 RMK A01 T03180120  RH  030%=      5-min Rain = 0
KMC1 122131Z 34010KT 32/12 A2991 RMK A01 T03190120  RH  030%=      5-min Rain = 0
KMC1 122132Z 35010KT 32/12 A2991 RMK A01 T03190118  RH  029%=      5-min Rain = 0
KMC1 122133Z 35006KT 32/12 A2991 RMK A01 T03180120  RH  030%=      5-min Rain = 0
KMC1 122134Z 00007KT 32/12 A2991 RMK A01 T03180122  RH  030%=      5-min Rain = 0
KMC1 122135Z 34008KT 32/12 A2991 RMK A01 T03190119  RH  029%=      5-min Rain = 0
KMC1 122136Z 35007KT 32/12 A2991 RMK A01 T03180117  RH  029%=      5-min Rain = 0
KMC1 122137Z 34006KT 32/12 A2991 RMK A01 T03160117  RH  029%=      5-min Rain = 0
KMC1 122138Z 35004KT 32/12 A2991 RMK A01 T03150117  RH  030%=      5-min Rain = 0
KMC1 122139Z 36003KT 32/12 A2991 RMK A01 T03150122  RH  031%=      5-min Rain = 0
KMC1 122140Z 01005KT 32/12 A2991 RMK A01 T03170121  RH  030%=      5-min Rain = 0
KMC1 122141Z 02004KT 32/12 A2991 RMK A01 T03180116  RH  029%=      5-min Rain = 0
KMC1 122142Z 35003KT 32/12 A2991 RMK A01 T03150115  RH  029%=      5-min Rain = 0
KMC1 122143Z 34002KT 31/12 A2991 RMK A01 T03140116  RH  030%=      5-min Rain = 0
KMC1 122144Z 29003KT 31/12 A2991 RMK A01 T03140121  RH  031%=      5-min Rain = 0
KMC1 122145Z 30004KT 32/12 A2991 RMK A01 T03160120  RH  030%=      5-min Rain = 0
KMC1 122146Z 34003KT 32/12 A2991 RMK A01 T03180122  RH  030%=      5-min Rain = 0
KMC1 122147Z 35008KT 32/12 A2991 RMK A01 T03190122  RH  030%=      5-min Rain = 0
KMC1 122148Z 35011KT 32/12 A2991 RMK A01 T03200120  RH  030%=      5-min Rain = 0
KMC1 122149Z 35007KT 32/12 A2991 RMK A01 T03190123  RH  030%=      5-min Rain = 0
KMC1 122150Z 02007KT 32/12 A2991 RMK A01 T03200123  RH  030%=      5-min Rain = 0
KMC1 122151Z 01007KT 32/12 A2991 RMK A01 T03200120  RH  029%=      5-min Rain = 0
KMC1 122152Z 01006KT 32/12 A2991 RMK A01 T03200122  RH  030%=      5-min Rain = 0
KMC1 122153Z 35006KT 32/12 A2991 RMK A01 T03190120  RH  030%=      5-min Rain = 0
KMC1 122154Z 35006KT 32/12 A2991 RMK A01 T03180121  RH  030%=      5-min Rain = 0
KMC1 122155Z 01004KT 32/12 A2991 RMK A01 T03180122  RH  030%=      5-min Rain = 0
KMC1 122156Z 02005KT 32/12 A2991 RMK A01 T03190118  RH  029%=      5-min Rain = 0
KMC1 122157Z 03005KT 32/12 A2991 RMK A01 T03180118  RH  030%=      5-min Rain = 0
KMC1 122158Z 02006KT 32/12 A2991 RMK A01 T03180120  RH  030%=      5-min Rain = 0
KMC1 122159Z 02006KT 32/12 A2991 RMK A01 T03190118  RH  029%=      5-min Rain = 0
KMC1 122200Z 00007KT 32/11 A2991 RMK A01 T03200114  RH  028%=      5-min Rain = 0
KMC1 122201Z 01007KT 32/11 A2991 RMK A01 T03180114  RH  029%=      5-min Rain = 0
KMC1 122202Z 03006KT 32/12 A2991 RMK A01 T03180116  RH  029%=      5-min Rain = 0
KMC1 122203Z 02007KT 32/12 A2991 RMK A01 T03190118  RH  029%=      5-min Rain = 0
KMC1 122204Z 01008KT 32/12 A2991 RMK A01 T03200115  RH  028%=      5-min Rain = 0
KMC1 122205Z 03007KT 32/12 A2991 RMK A01 T03200117  RH  029%=      5-min Rain = 0
KMC1 122206Z 02008KT 32/12 A2991 RMK A01 T03190116  RH  029%=      5-min Rain = 0
KMC1 122207Z 00007KT 32/12 A2991 RMK A01 T03190116  RH  029%=      5-min Rain = 0
KMC1 122208Z 36005KT 32/11 A2991 RMK A01 T03180114  RH  029%=      5-min Rain = 0
KMC1 122209Z 00003KT 32/11 A2991 RMK A01 T03170113  RH  028%=      5-min Rain = 0
KMC1 122210Z 02007KT 32/12 A2991 RMK A01 T03160115  RH  029%=      5-min Rain = 0
KMC1 122211Z 00008KT 32/12 A2991 RMK A01 T03160116  RH  029%=      5-min Rain = 0
KMC1 122212Z 36006KT 32/12 A2991 RMK A01 T03160118  RH  030%=      5-min Rain = 0
KMC1 122213Z 01005KT 32/12 A2991 RMK A01 T03180119  RH  030%=      5-min Rain = 0
KMC1 122214Z 02006KT 32/12 A2991 RMK A01 T03200119  RH  029%=      5-min Rain = 0
KMC1 122215Z 01006KT 32/11 A2991 RMK A01 T03210114  RH  028%=      5-min Rain = 0
KMC1 122216Z 35006KT 32/11 A2991 RMK A01 T03200114  RH  028%=      5-min Rain = 0
KMC1 122217Z 00006KT 32/12 A2991 RMK A01 T03190116  RH  029%=      5-min Rain = 0
KMC1 122218Z 01006KT 32/12 A2991 RMK A01 T03190116  RH  029%=      5-min Rain = 0
KMC1 122219Z 34009KT 32/12 A2991 RMK A01 T03180116  RH  029%=      5-min Rain = 0
KMC1 122220Z 36008KT 32/11 A2991 RMK A01 T03170113  RH  029%=      5-min Rain = 0
KMC1 122221Z 36006KT 32/11 A2991 RMK A01 T03150114  RH  029%=      5-min Rain = 0
KMC1 122222Z 34007KT 31/12 A2991 RMK A01 T03140116  RH  030%=      5-min Rain = 0
KMC1 122223Z 33005KT 32/11 A2991 RMK A01 T03150114  RH  029%=      5-min Rain = 0
KMC1 122224Z 33004KT 32/12 A2991 RMK A01 T03150115  RH  029%=      5-min Rain = 0
KMC1 122225Z 33006KT 32/12 A2991 RMK A01 T03150115  RH  029%=      5-min Rain = 0
KMC1 122226Z 32003KT 31/12 A2991 RMK A01 T03140117  RH  030%=      5-min Rain = 0
KMC1 122227Z 33005KT 32/12 A2991 RMK A01 T03150118  RH  030%=      5-min Rain = 0
KMC1 122228Z 35006KT 32/12 A2991 RMK A01 T03160118  RH  030%=      5-min Rain = 0
KMC1 122229Z 36006KT 32/12 A2991 RMK A01 T03160119  RH  030%=      5-min Rain = 0
KMC1 122230Z 35007KT 32/12 A299 RMK A01 T03160119  RH  030%=      5-min Rain = 0
KMC1 122231Z 33008KT 32/12 A299 RMK A01 T03160122  RH  031%=      5-min Rain = 0
KMC1 122232Z 32006KT 32/12 A299 RMK A01 T03160119  RH  030%=      5-min Rain = 0
KMC1 122233Z 32004KT 32/12 A299 RMK A01 T03150118  RH  030%=      5-min Rain = 0
KMC1 122234Z 32003KT 32/12 A299 RMK A01 T03150118  RH  030%=      5-min Rain = 0
KMC1 122235Z 32002KT 31/12 A299 RMK A01 T03140120  RH  030%=      5-min Rain = 0
KMC1 122236Z 34005KT 32/12 A299 RMK A01 T03150124  RH  031%=      5-min Rain = 0
KMC1 122237Z 00005KT 32/13 A299 RMK A01 T03170125  RH  031%=      5-min Rain = 0
KMC1 122238Z 01006KT 32/12 A299 RMK A01 T03180122  RH  030%=      5-min Rain = 0
KMC1 122239Z 32007KT 32/12 A299 RMK A01 T03180121  RH  030%=      5-min Rain = 0
KMC1 122240Z 32003KT 32/12 A299 RMK A01 T03180117  RH  029%=      5-min Rain = 0
KMC1 122241Z 27002KT 32/12 A299 RMK A01 T03170117  RH  029%=      5-min Rain = 0
KMC1 122242Z 30003KT 32/12 A299 RMK A01 T03180118  RH  029%=      5-min Rain = 0
KMC1 122243Z 29005KT 32/12 A299 RMK A01 T03180120  RH  030%=      5-min Rain = 0
KMC1 122244Z 31004KT 32/12 A299 RMK A01 T03190118  RH  029%=      5-min Rain = 0
KMC1 122245Z 32005KT 32/12 A299 RMK A01 T03190120  RH  029%=      5-min Rain = 0
KMC1 122246Z 31006KT 32/12 A299 RMK A01 T03190118  RH  029%=      5-min Rain = 0
KMC1 122247Z 34005KT 32/12 A299 RMK A01 T03180118  RH  029%=      5-min Rain = 0
KMC1 122248Z 36006KT 32/12 A299 RMK A01 T03170117  RH  029%=      5-min Rain = 0
KMC1 122249Z 35005KT 32/12 A299 RMK A01 T03160120  RH  030%=      5-min Rain = 0
KMC1 122250Z 01006KT 32/12 A299 RMK A01 T03170121  RH  030%=      5-min Rain = 0
KMC1 122251Z 01008KT 32/12 A299 RMK A01 T03180119  RH  030%=      5-min Rain = 0
KMC1 122252Z 35008KT 32/12 A299 RMK A01 T03180118  RH  029%=      5-min Rain = 0
KMC1 122253Z 36006KT 32/12 A299 RMK A01 T03170122  RH  030%=      5-min Rain = 0
KMC1 122254Z 34007KT 32/12 A299 RMK A01 T03170120  RH  030%=      5-min Rain = 0
KMC1 122255Z 33006KT 32/12 A299 RMK A01 T03180121  RH  030%=      5-min Rain = 0
KMC1 122256Z 34004KT 32/12 A299 RMK A01 T03170122  RH  030%=      5-min Rain = 0
KMC1 122257Z 35007KT 32/12 A299 RMK A01 T03180121  RH  030%=      5-min Rain = 0
KMC1 122258Z 35006KT 32/12 A299 RMK A01 T03180118  RH  029%=      5-min Rain = 0
KMC1 122259Z 35006KT 32/12 A299 RMK A01 T03170119  RH  030%=      5-min Rain = 0
KMC1 122300Z 00005KT 32/12 A299 RMK A01 T03160117  RH  030%=      5-min Rain = 0
KMC1 122301Z 35004KT 32/12 A299 RMK A01 T03150115  RH  029%=      5-min Rain = 0
KMC1 122302Z 00003KT 31/12 A299 RMK A01 T03140119  RH  030%=      5-min Rain = 0
KMC1 122303Z 01003KT 32/12 A299 RMK A01 T03150121  RH  030%=      5-min Rain = 0
KMC1 122304Z 01008KT 32/12 A299 RMK A01 T03160120  RH  030%=      5-min Rain = 0
KMC1 122305Z 35008KT 32/12 A299 RMK A01 T03160118  RH  030%=      5-min Rain = 0
KMC1 122306Z 34007KT 32/12 A299 RMK A01 T03150121  RH  031%=      5-min Rain = 0
KMC1 122307Z 35007KT 32/12 A299 RMK A01 T03150118  RH  030%=      5-min Rain = 0
KMC1 122308Z 34006KT 32/12 A299 RMK A01 T03150121  RH  030%=      5-min Rain = 0
KMC1 122309Z 33006KT 32/12 A299 RMK A01 T03150120  RH  030%=      5-min Rain = 0
KMC1 122310Z 34006KT 32/12 A299 RMK A01 T03150118  RH  030%=      5-min Rain = 0
KMC1 122311Z 35003KT 31/12 A299 RMK A01 T03140119  RH  030%=      5-min Rain = 0
KMC1 122312Z 01005KT 31/12 A299 RMK A01 T03140122  RH  031%=      5-min Rain = 0
KMC1 122313Z 01006KT 31/12 A299 RMK A01 T03140118  RH  030%=      5-min Rain = 0
KMC1 122314Z 00005KT 31/12 A299 RMK A01 T03140116  RH  030%=      5-min Rain = 0
KMC1 122315Z 35006KT 31/12 A299 RMK A01 T03130117  RH  030%=      5-min Rain = 0
KMC1 122316Z 36008KT 31/12 A299 RMK A01 T03130119  RH  030%=      5-min Rain = 0
KMC1 122317Z 36007KT 31/12 A299 RMK A01 T03130118  RH  030%=      5-min Rain = 0
KMC1 122318Z 35007KT 31/12 A299 RMK A01 T03130117  RH  030%=      5-min Rain = 0
KMC1 122319Z 34005KT 31/12 A299 RMK A01 T03120118  RH  031%=      5-min Rain = 0
KMC1 122320Z 35007KT 31/12 A299 RMK A01 T03120120  RH  031%=      5-min Rain = 0
KMC1 122321Z 35008KT 31/12 A299 RMK A01 T03120120  RH  031%=      5-min Rain = 0
KMC1 122322Z 35009KT 31/12 A299 RMK A01 T03120118  RH  030%=      5-min Rain = 0
KMC1 122323Z 35006KT 31/12 A299 RMK A01 T03120118  RH  030%=      5-min Rain = 0
KMC1 122324Z 35005KT 31/12 A299 RMK A01 T03120120  RH  031%=      5-min Rain = 0
KMC1 122325Z 35008KT 31/12 A299 RMK A01 T03120118  RH  030%=      5-min Rain = 0
KMC1 122326Z 35006KT 31/12 A299 RMK A01 T03120119  RH  031%=      5-min Rain = 0
KMC1 122327Z 35006KT 31/12 A299 RMK A01 T03110118  RH  031%=      5-min Rain = 0
KMC1 122328Z 35007KT 31/12 A299 RMK A01 T03110118  RH  031%=      5-min Rain = 0
KMC1 122329Z 35006KT 31/12 A299 RMK A01 T03110118  RH  031%=      5-min Rain = 0
KMC1 122330Z 35004KT 31/12 A299 RMK A01 T03110120  RH  031%=      5-min Rain = 0
KMC1 122331Z 35005KT 31/12 A299 RMK A01 T03110121  RH  031%=      5-min Rain = 0
KMC1 122332Z 34007KT 31/12 A299 RMK A01 T03110118  RH  031%=      5-min Rain = 0
KMC1 122333Z 34006KT 31/12 A299 RMK A01 T03110115  RH  030%=      5-min Rain = 0
KMC1 122334Z 34006KT 31/12 A299 RMK A01 T03100118  RH  031%=      5-min Rain = 0
KMC1 122335Z 35005KT 31/12 A299 RMK A01 T03100118  RH  031%=      5-min Rain = 0
KMC1 122336Z 34004KT 31/12 A299 RMK A01 T03100119  RH  031%=      5-min Rain = 0
KMC1 122337Z 34005KT 31/12 A2989 RMK A01 T03100118  RH  031%=      5-min Rain = 0
KMC1 122338Z 33004KT 31/12 A2989 RMK A01 T03100115  RH  030%=      5-min Rain = 0
KMC1 122339Z 33004KT 31/12 A2989 RMK A01 T03100116  RH  030%=      5-min Rain = 0
KMC1 122340Z 33004KT 31/12 A2989 RMK A01 T03100119  RH  031%=      5-min Rain = 0
KMC1 122341Z 34005KT 31/12 A2989 RMK A01 T03100116  RH  030%=      5-min Rain = 0
KMC1 122342Z 33005KT 31/12 A2989 RMK A01 T03100116  RH  030%=      5-min Rain = 0
KMC1 122343Z 34005KT 31/12 A2989 RMK A01 T03090115  RH  030%=      5-min Rain = 0
KMC1 122344Z 34004KT 31/12 A2989 RMK A01 T03090117  RH  031%=      5-min Rain = 0
KMC1 122345Z 35003KT 31/12 A2989 RMK A01 T03090119  RH  031%=      5-min Rain = 0
KMC1 122346Z 00003KT 31/12 A2989 RMK A01 T03080122  RH  032%=      5-min Rain = 0
KMC1 122347Z 35005KT 31/12 A2989 RMK A01 T03080118  RH  031%=      5-min Rain = 0
KMC1 122348Z 35005KT 31/12 A2989 RMK A01 T03080119  RH  031%=      5-min Rain = 0
KMC1 122349Z 35006KT 31/12 A2989 RMK A01 T03080117  RH  031%=      5-min Rain = 0
KMC1 122350Z 36004KT 31/12 A2989 RMK A01 T03080116  RH  031%=      5-min Rain = 0
KMC1 122351Z 00004KT 31/12 A2989 RMK A01 T03070115  RH  031%=      5-min Rain = 0
KMC1 122352Z 36005KT 31/12 A2989 RMK A01 T03070117  RH  031%=      5-min Rain = 0
KMC1 122353Z 35003KT 31/12 A2989 RMK A01 T03070119  RH  032%=      5-min Rain = 0
KMC1 122354Z 35002KT 31/12 A2989 RMK A01 T03060120  RH  032%=      5-min Rain = 0
KMC1 122355Z 35003KT 31/12 A2989 RMK A01 T03060121  RH  032%=      5-min Rain = 0
KMC1 122356Z 35003KT 31/12 A2989 RMK A01 T03060120  RH  032%=      5-min Rain = 0
KMC1 122357Z 35003KT 31/12 A2989 RMK A01 T03050121  RH  032%=      5-min Rain = 0
KMC1 122358Z 34002KT 31/12 A2989 RMK A01 T03050120  RH  032%=      5-min Rain = 0
KMC1 122359Z 35003KT 31/12 A2989 RMK A01 T03050121  RH  032%=      5-min Rain = 0
KMC1 130000Z 35003KT 31/12 A2989 RMK A01 T03050122  RH  032%=      5-min Rain = 0
KMC1 130001Z 34004KT 30/12 A2989 RMK A01 T03040118  RH  032%=      5-min Rain = 0
KMC1 130002Z 35003KT 30/12 A2989 RMK A01 T03030118  RH  032%=      5-min Rain = 0
KMC1 130003Z 34003KT 30/12 A2989 RMK A01 T03030119  RH  032%=      5-min Rain = 0
KMC1 130004Z 35003KT 30/12 A2989 RMK A01 T03030118  RH  032%=      5-min Rain = 0
KMC1 130005Z 35005KT 30/12 A2989 RMK A01 T03030118  RH  032%=      5-min Rain = 0
KMC1 130006Z 35005KT 30/12 A2989 RMK A01 T03020118  RH  032%=      5-min Rain = 0
KMC1 130007Z 35004KT 30/12 A2989 RMK A01 T03010118  RH  032%=      5-min Rain = 0
KMC1 130008Z 36004KT 30/12 A2989 RMK A01 T03000119  RH  033%=      5-min Rain = 0
KMC1 130009Z 36005KT 30/12 A2989 RMK A01 T03000117  RH  032%=      5-min Rain = 0
KMC1 130010Z 01004KT 30/11 A2989 RMK A01 T02990114  RH  032%=      5-min Rain = 0
KMC1 130011Z 01005KT 30/11 A2989 RMK A01 T02990113  RH  032%=      5-min Rain = 0
KMC1 130012Z 01004KT 30/11 A2989 RMK A01 T02990114  RH  032%=      5-min Rain = 0
KMC1 130013Z 01004KT 30/11 A2989 RMK A01 T02990114  RH  032%=      5-min Rain = 0
KMC1 130014Z 01003KT 30/12 A2989 RMK A01 T02990115  RH  032%=      5-min Rain = 0
KMC1 130015Z 01003KT 30/12 A2989 RMK A01 T02980115  RH  032%=      5-min Rain = 0
KMC1 130016Z 01003KT 30/12 A2989 RMK A01 T02970115  RH  032%=      5-min Rain = 0
KMC1 130017Z 01003KT 30/12 A2989 RMK A01 T02970115  RH  033%=      5-min Rain = 0
KMC1 130018Z 01002KT 30/12 A2989 RMK A01 T02970116  RH  033%=      5-min Rain = 0
KMC1 130019Z 01003KT 30/12 A2989 RMK A01 T02960116  RH  033%=      5-min Rain = 0
KMC1 130020Z 01003KT 30/12 A2989 RMK A01 T02960116  RH  033%=      5-min Rain = 0
KMC1 130021Z 02003KT 30/12 A2989 RMK A01 T02950116  RH  033%=      5-min Rain = 0
KMC1 130022Z 02004KT 29/12 A2989 RMK A01 T02940117  RH  033%=      5-min Rain = 0
KMC1 130023Z 01003KT 29/12 A2989 RMK A01 T02940117  RH  034%=      5-min Rain = 0
KMC1 130024Z 02004KT 29/12 A2989 RMK A01 T02930119  RH  034%=      5-min Rain = 0
KMC1 130025Z 02004KT 29/12 A2989 RMK A01 T02920118  RH  034%=      5-min Rain = 0
KMC1 130026Z 02003KT 29/12 A2989 RMK A01 T02910118  RH  034%=      5-min Rain = 0
KMC1 130027Z 02003KT 29/12 A2989 RMK A01 T02910118  RH  034%=      5-min Rain = 0
KMC1 130028Z 02003KT 29/12 A2989 RMK A01 T02900118  RH  034%=      5-min Rain = 0
KMC1 130029Z 02003KT 29/12 A2989 RMK A01 T02900118  RH  035%=      5-min Rain = 0
KMC1 130030Z 02003KT 29/12 A2989 RMK A01 T02900119  RH  035%=      5-min Rain = 0
KMC1 130031Z 02003KT 29/12 A2989 RMK A01 T02890119  RH  035%=      5-min Rain = 0
KMC1 130032Z 02003KT 29/12 A2989 RMK A01 T02890119  RH  035%=      5-min Rain = 0
KMC1 130033Z 02003KT 29/12 A2989 RMK A01 T02880119  RH  035%=      5-min Rain = 0
KMC1 130034Z 02003KT 29/12 A2989 RMK A01 T02880119  RH  035%=      5-min Rain = 0
KMC1 130035Z 02003KT 29/12 A2989 RMK A01 T02870118  RH  035%=      5-min Rain = 0
KMC1 130036Z 02003KT 29/12 A2989 RMK A01 T02870118  RH  035%=      5-min Rain = 0
KMC1 130037Z 02003KT 29/12 A2989 RMK A01 T02870118  RH  035%=      5-min Rain = 0
KMC1 130038Z 02003KT 29/12 A2988 RMK A01 T02860117  RH  035%=      5-min Rain = 0
KMC1 130039Z 03002KT 29/12 A2988 RMK A01 T02860118  RH  035%=      5-min Rain = 0
KMC1 130040Z 03003KT 29/12 A2988 RMK A01 T02860119  RH  036%=      5-min Rain = 0
KMC1 130041Z 03003KT 29/12 A2988 RMK A01 T02850119  RH  036%=      5-min Rain = 0
KMC1 130042Z 02003KT 28/12 A2988 RMK A01 T02840118  RH  036%=      5-min Rain = 0
KMC1 130043Z 01003KT 28/12 A2988 RMK A01 T02840117  RH  036%=      5-min Rain = 0
KMC1 130044Z 01003KT 28/12 A2988 RMK A01 T02830117  RH  036%=      5-min Rain = 0
KMC1 130045Z 02003KT 28/12 A2988 RMK A01 T02840117  RH  036%=      5-min Rain = 0
KMC1 130046Z 02003KT 28/12 A2988 RMK A01 T02830116  RH  036%=      5-min Rain = 0
KMC1 130047Z 02003KT 28/12 A2988 RMK A01 T02830116  RH  035%=      5-min Rain = 0
KMC1 130048Z 02003KT 28/12 A2988 RMK A01 T02830117  RH  036%=      5-min Rain = 0
KMC1 130049Z 02002KT 28/12 A2988 RMK A01 T02830117  RH  036%=      5-min Rain = 0
KMC1 130050Z 02003KT 28/12 A2988 RMK A01 T02820117  RH  036%=      5-min Rain = 0
KMC1 130051Z 01002KT 28/12 A2988 RMK A01 T02820117  RH  036%=      5-min Rain = 0
KMC1 130052Z 02002KT 28/12 A2988 RMK A01 T02810118  RH  036%=      5-min Rain = 0
KMC1 130053Z 02002KT 28/12 A2988 RMK A01 T02810118  RH  036%=      5-min Rain = 0
KMC1 130054Z 02002KT 28/12 A2988 RMK A01 T02800118  RH  037%=      5-min Rain = 0
KMC1 130055Z 03002KT 28/12 A2988 RMK A01 T02780117  RH  037%=      5-min Rain = 0
KMC1 130056Z 03002KT 28/12 A2988 RMK A01 T02770117  RH  037%=      5-min Rain = 0
KMC1 130057Z 03002KT 28/12 A2988 RMK A01 T02760118  RH  038%=      5-min Rain = 0
KMC1 130058Z 03002KT 28/12 A2988 RMK A01 T02750118  RH  038%=      5-min Rain = 0
KMC1 130059Z 03002KT 27/12 A2988 RMK A01 T02730117  RH  038%=      5-min Rain = 0
KMC1 130100Z 03002KT 27/12 A2988 RMK A01 T02730117  RH  038%=      5-min Rain = 0
KMC1 130101Z 04002KT 27/12 A2988 RMK A01 T02730117  RH  038%=      5-min Rain = 0
KMC1 130102Z 04002KT 27/12 A2988 RMK A01 T02720116  RH  038%=      5-min Rain = 0
KMC1 130103Z 04002KT 27/12 A2988 RMK A01 T02720117  RH  038%=      5-min Rain = 0
KMC1 130104Z 04002KT 27/12 A2988 RMK A01 T02730117  RH  038%=      5-min Rain = 0
KMC1 130105Z 04002KT 27/12 A2988 RMK A01 T02730118  RH  038%=      5-min Rain = 0
KMC1 130106Z 04002KT 27/12 A2988 RMK A01 T02720117  RH  038%=      5-min Rain = 0
KMC1 130107Z 04002KT 27/12 A2988 RMK A01 T02720117  RH  038%=      5-min Rain = 0
KMC1 130108Z 03002KT 27/12 A2988 RMK A01 T02720117  RH  038%=      5-min Rain = 0
KMC1 130109Z 04002KT 27/12 A2988 RMK A01 T02720117  RH  038%=      5-min Rain = 0
KMC1 130110Z 04002KT 27/12 A2988 RMK A01 T02710117  RH  038%=      5-min Rain = 0
KMC1 130111Z 05002KT 27/12 A2988 RMK A01 T02710117  RH  038%=      5-min Rain = 0
KMC1 130112Z 05001KT 27/12 A2988 RMK A01 T02700116  RH  038%=      5-min Rain = 0
KMC1 130113Z 06000KT 27/13 A2988 RMK A01 T02690125  RH  041%=      5-min Rain = 0
KMC1 130114Z 00000KT 27/12 A2988 RMK A01 T02670122  RH  041%=      5-min Rain = 0
KMC1 130115Z 09001KT 27/12 A2988 RMK A01 T02660121  RH  041%=      5-min Rain = 0
KMC1 130116Z 08001KT 26/12 A2988 RMK A01 T02640119  RH  040%=      5-min Rain = 0
KMC1 130117Z 08001KT 26/12 A2988 RMK A01 T02630119  RH  041%=      5-min Rain = 0
KMC1 130118Z 08001KT 26/12 A2989 RMK A01 T02610117  RH  040%=      5-min Rain = 0
KMC1 130119Z 08001KT 26/12 A2989 RMK A01 T02610117  RH  041%=      5-min Rain = 0
KMC1 130120Z 07001KT 26/12 A2989 RMK A01 T02610116  RH  040%=      5-min Rain = 0
KMC1 130121Z 08001KT 26/12 A2989 RMK A01 T02610115  RH  040%=      5-min Rain = 0
KMC1 130122Z 08001KT 26/12 A2989 RMK A01 T02620115  RH  040%=      5-min Rain = 0
KMC1 130123Z 08001KT 26/11 A2989 RMK A01 T02620114  RH  040%=      5-min Rain = 0
KMC1 130124Z 08001KT 26/11 A2989 RMK A01 T02640114  RH  039%=      5-min Rain = 0
KMC1 130125Z 08002KT 27/11 A2989 RMK A01 T02650114  RH  039%=      5-min Rain = 0
KMC1 130126Z 08002KT 27/11 A2989 RMK A01 T02660114  RH  039%=      5-min Rain = 0
KMC1 130127Z 08001KT 27/11 A2989 RMK A01 T02670114  RH  038%=      5-min Rain = 0
KMC1 130128Z 09001KT 27/11 A2989 RMK A01 T02670113  RH  038%=      5-min Rain = 0
KMC1 130129Z 09001KT 27/11 A2989 RMK A01 T02680113  RH  038%=      5-min Rain = 0
KMC1 130130Z 09001KT 27/11 A2989 RMK A01 T02690113  RH  038%=      5-min Rain = 0
KMC1 130131Z 09001KT 27/11 A2989 RMK A01 T02690113  RH  038%=      5-min Rain = 0
KMC1 130132Z 10002KT 27/11 A2989 RMK A01 T02690112  RH  038%=      5-min Rain = 0
KMC1 130133Z 10002KT 27/11 A2989 RMK A01 T02690112  RH  037%=      5-min Rain = 0
KMC1 130134Z 09002KT 27/11 A2989 RMK A01 T02690112  RH  037%=      5-min Rain = 0
KMC1 130135Z 09002KT 27/11 A2989 RMK A01 T02690112  RH  038%=      5-min Rain = 0
KMC1 130136Z 10002KT 27/11 A2989 RMK A01 T02680112  RH  038%=      5-min Rain = 0
KMC1 130137Z 10002KT 27/11 A2989 RMK A01 T02680112  RH  038%=      5-min Rain = 0
KMC1 130138Z 09003KT 27/11 A2989 RMK A01 T02670111  RH  038%=      5-min Rain = 0
KMC1 130139Z 09003KT 27/11 A2989 RMK A01 T02670112  RH  038%=      5-min Rain = 0
KMC1 130140Z 10004KT 27/11 A2989 RMK A01 T02670112  RH  038%=      5-min Rain = 0
KMC1 130141Z 11005KT 27/11 A2989 RMK A01 T02660113  RH  038%=      5-min Rain = 0
KMC1 130142Z 11005KT 26/12 A2989 RMK A01 T02630115  RH  040%=      5-min Rain = 0
KMC1 130143Z 11005KT 26/12 A2989 RMK A01 T02590116  RH  041%=      5-min Rain = 0
KMC1 130144Z 10005KT 26/12 A2989 RMK A01 T02560116  RH  041%=      5-min Rain = 0
KMC1 130145Z 11004KT 25/12 A2989 RMK A01 T02540116  RH  042%=      5-min Rain = 0
KMC1 130146Z 11005KT 25/12 A2989 RMK A01 T02520115  RH  042%=      5-min Rain = 0
KMC1 130147Z 11004KT 25/12 A2989 RMK A01 T02520115  RH  042%=      5-min Rain = 0
KMC1 130148Z 11005KT 25/11 A2989 RMK A01 T02510114  RH  042%=      5-min Rain = 0
KMC1 130149Z 11005KT 25/11 A2989 RMK A01 T02510114  RH  042%=      5-min Rain = 0
KMC1 130150Z 11005KT 25/11 A2989 RMK A01 T02510114  RH  042%=      5-min Rain = 0
KMC1 130151Z 10005KT 25/11 A2989 RMK A01 T02510114  RH  042%=      5-min Rain = 0
KMC1 130152Z 11005KT 25/12 A2989 RMK A01 T02510115  RH  043%=      5-min Rain = 0
KMC1 130153Z 11005KT 25/11 A2989 RMK A01 T02500114  RH  043%=      5-min Rain = 0
KMC1 130154Z 11005KT 25/11 A2989 RMK A01 T02500114  RH  043%=      5-min Rain = 0
KMC1 130155Z 11005KT 25/11 A2989 RMK A01 T02490114  RH  043%=      5-min Rain = 0
KMC1 130156Z 11005KT 25/11 A2989 RMK A01 T02490114  RH  043%=      5-min Rain = 0
KMC1 130157Z 11005KT 25/11 A2989 RMK A01 T02490113  RH  043%=      5-min Rain = 0
KMC1 130158Z 11005KT 25/11 A2989 RMK A01 T02500114  RH  043%=      5-min Rain = 0
KMC1 130159Z 12005KT 25/11 A2989 RMK A01 T02490114  RH  043%=      5-min Rain = 0
KMC1 130200Z 11005KT 25/11 A2989 RMK A01 T02490114  RH  043%=      5-min Rain = 0
KMC1 130201Z 11005KT 25/11 A2989 RMK A01 T02490113  RH  042%=      5-min Rain = 0
KMC1 130202Z 11005KT 25/11 A2989 RMK A01 T02500113  RH  042%=      5-min Rain = 0
KMC1 130203Z 11005KT 25/11 A2989 RMK A01 T02500113  RH  042%=      5-min Rain = 0
KMC1 130204Z 11005KT 25/11 A2989 RMK A01 T02500113  RH  042%=      5-min Rain = 0
KMC1 130205Z 12005KT 25/11 A2989 RMK A01 T02500113  RH  042%=      5-min Rain = 0
KMC1 130206Z 12004KT 25/11 A2989 RMK A01 T02500113  RH  042%=      5-min Rain = 0
KMC1 130207Z 12004KT 25/11 A2989 RMK A01 T02500114  RH  042%=      5-min Rain = 0
KMC1 130208Z 12004KT 25/11 A2989 RMK A01 T02500113  RH  042%=      5-min Rain = 0
KMC1 130209Z 12004KT 25/11 A2989 RMK A01 T02500113  RH  042%=      5-min Rain = 0
KMC1 130210Z 12003KT 25/11 A299 RMK A01 T02500114  RH  042%=      5-min Rain = 0
KMC1 130211Z 12003KT 25/11 A299 RMK A01 T02490113  RH  043%=      5-min Rain = 0
KMC1 130212Z 12003KT 25/11 A299 RMK A01 T02480113  RH  043%=      5-min Rain = 0
KMC1 130213Z 12003KT 25/11 A299 RMK A01 T02470112  RH  043%=      5-min Rain = 0
KMC1 130214Z 12003KT 25/11 A299 RMK A01 T02470114  RH  043%=      5-min Rain = 0
KMC1 130215Z 12003KT 25/12 A299 RMK A01 T02460118  RH  045%=      5-min Rain = 0
KMC1 130216Z 12003KT 24/12 A299 RMK A01 T02440123  RH  047%=      5-min Rain = 0
KMC1 130217Z 12003KT 24/12 A299 RMK A01 T02430123  RH  047%=      5-min Rain = 0
KMC1 130218Z 12003KT 24/12 A299 RMK A01 T02410120  RH  047%=      5-min Rain = 0
KMC1 130219Z 12003KT 24/12 A299 RMK A01 T02390120  RH  047%=      5-min Rain = 0
KMC1 130220Z 12003KT 24/12 A299 RMK A01 T02380123  RH  048%=      5-min Rain = 0
KMC1 130221Z 12003KT 24/12 A299 RMK A01 T02370123  RH  049%=      5-min Rain = 0
KMC1 130222Z 12003KT 24/12 A299 RMK A01 T02350123  RH  049%=      5-min Rain = 0
KMC1 130223Z 12003KT 23/12 A299 RMK A01 T02330122  RH  049%=      5-min Rain = 0
KMC1 130224Z 12003KT 23/12 A299 RMK A01 T02320123  RH  050%=      5-min Rain = 0
KMC1 130225Z 12003KT 23/12 A299 RMK A01 T02310122  RH  050%=      5-min Rain = 0
KMC1 130226Z 12003KT 23/12 A299 RMK A01 T02300122  RH  050%=      5-min Rain = 0
KMC1 130227Z 12003KT 23/13 A299 RMK A01 T02290125  RH  052%=      5-min Rain = 0
KMC1 130228Z 13002KT 23/13 A299 RMK A01 T02280126  RH  052%=      5-min Rain = 0
KMC1 130229Z 12003KT 23/13 A299 RMK A01 T02270126  RH  053%=      5-min Rain = 0
KMC1 130230Z 13002KT 23/13 A299 RMK A01 T02260128  RH  054%=      5-min Rain = 0
KMC1 130231Z 12002KT 22/13 A299 RMK A01 T02240128  RH  054%=      5-min Rain = 0
KMC1 130232Z 12003KT 22/13 A299 RMK A01 T02230128  RH  055%=      5-min Rain = 0
KMC1 130233Z 12003KT 22/13 A299 RMK A01 T02220128  RH  055%=      5-min Rain = 0
KMC1 130234Z 12003KT 22/13 A299 RMK A01 T02200127  RH  056%=      5-min Rain = 0
KMC1 130235Z 12003KT 22/13 A299 RMK A01 T02190127  RH  056%=      5-min Rain = 0
KMC1 130236Z 12003KT 22/13 A299 RMK A01 T02180125  RH  055%=      5-min Rain = 0
KMC1 130237Z 12003KT 22/12 A299 RMK A01 T02180122  RH  054%=      5-min Rain = 0
KMC1 130238Z 12003KT 22/12 A299 RMK A01 T02180121  RH  054%=      5-min Rain = 0
KMC1 130239Z 12003KT 22/12 A299 RMK A01 T02190121  RH  054%=      5-min Rain = 0
KMC1 130240Z 11002KT 22/12 A299 RMK A01 T02200121  RH  053%=      5-min Rain = 0
KMC1 130241Z 11002KT 22/12 A299 RMK A01 T02220120  RH  052%=      5-min Rain = 0
KMC1 130242Z 12002KT 22/12 A299 RMK A01 T02230116  RH  051%=      5-min Rain = 0
KMC1 130243Z 11002KT 23/12 A299 RMK A01 T02250117  RH  050%=      5-min Rain = 0
KMC1 130244Z 11002KT 23/11 A299 RMK A01 T02260114  RH  049%=      5-min Rain = 0
KMC1 130245Z 11001KT 23/11 A299 RMK A01 T02270114  RH  049%=      5-min Rain = 0
KMC1 130246Z 10000KT 23/12 A299 RMK A01 T02270120  RH  051%=      5-min Rain = 0
KMC1 130247Z 00000KT 23/12 A299 RMK A01 T02270124  RH  052%=      5-min Rain = 0
KMC1 130248Z 11000KT 23/13 A299 RMK A01 T02260128  RH  054%=      5-min Rain = 0
KMC1 130249Z 00000KT 22/13 A299 RMK A01 T02230129  RH  055%=      5-min Rain = 0
KMC1 130250Z 00000KT 22/13 A299 RMK A01 T02200130  RH  057%=      5-min Rain = 0
KMC1 130251Z 00000KT 22/13 A299 RMK A01 T02170129  RH  057%=      5-min Rain = 0
KMC1 130252Z 34000KT 22/13 A299 RMK A01 T02160128  RH  057%=      5-min Rain = 0
KMC1 130253Z 00000KT 21/13 A299 RMK A01 T02140127  RH  058%=      5-min Rain = 0
KMC1 130254Z 01001KT 21/13 A299 RMK A01 T02120125  RH  057%=      5-min Rain = 0
KMC1 130255Z 03001KT 21/12 A299 RMK A01 T02110123  RH  057%=      5-min Rain = 0
KMC1 130256Z 05001KT 21/12 A299 RMK A01 T02110122  RH  057%=      5-min Rain = 0
KMC1 130257Z 07002KT 21/12 A299 RMK A01 T02120121  RH  056%=      5-min Rain = 0
KMC1 130258Z 07001KT 21/12 A299 RMK A01 T02130121  RH  056%=      5-min Rain = 0
KMC1 130259Z 08002KT 21/12 A299 RMK A01 T02140121  RH  055%=      5-min Rain = 0
KMC1 130300Z 08002KT 22/12 A299 RMK A01 T02150120  RH  055%=      5-min Rain = 0
KMC1 130301Z 08002KT 22/12 A299 RMK A01 T02160120  RH  054%=      5-min Rain = 0
KMC1 130302Z 09002KT 22/12 A299 RMK A01 T02170120  RH  054%=      5-min Rain = 0
KMC1 130303Z 09002KT 22/12 A299 RMK A01 T02160119  RH  054%=      5-min Rain = 0
KMC1 130304Z 09002KT 22/12 A299 RMK A01 T02160118  RH  054%=      5-min Rain = 0
KMC1 130305Z 08002KT 22/12 A299 RMK A01 T02160118  RH  054%=      5-min Rain = 0
KMC1 130306Z 07002KT 22/12 A299 RMK A01 T02150118  RH  054%=      5-min Rain = 0
KMC1 130307Z 07001KT 22/12 A299 RMK A01 T02150119  RH  054%=      5-min Rain = 0
KMC1 130308Z 06001KT 21/12 A299 RMK A01 T02140122  RH  055%=      5-min Rain = 0
KMC1 130309Z 06001KT 21/12 A299 RMK A01 T02130120  RH  055%=      5-min Rain = 0
KMC1 130310Z 05001KT 21/12 A299 RMK A01 T02130122  RH  056%=      5-min Rain = 0
KMC1 130311Z 04001KT 21/13 A299 RMK A01 T02130128  RH  058%=      5-min Rain = 0
KMC1 130312Z 03001KT 21/13 A299 RMK A01 T02130126  RH  058%=      5-min Rain = 0
KMC1 130313Z 03001KT 21/13 A299 RMK A01 T02130125  RH  057%=      5-min Rain = 0
KMC1 130314Z 03001KT 21/13 A299 RMK A01 T02120125  RH  058%=      5-min Rain = 0
KMC1 130315Z 05001KT 21/13 A299 RMK A01 T02110128  RH  059%=      5-min Rain = 0
KMC1 130316Z 05002KT 21/13 A299 RMK A01 T02100131  RH  060%=      5-min Rain = 0
KMC1 130317Z 06002KT 21/13 A299 RMK A01 T02090128  RH  060%=      5-min Rain = 0
KMC1 130318Z 07003KT 21/13 A299 RMK A01 T02090129  RH  060%=      5-min Rain = 0
KMC1 130319Z 07002KT 21/13 A299 RMK A01 T02080129  RH  060%=      5-min Rain = 0
KMC1 130320Z 08003KT 21/13 A299 RMK A01 T02070126  RH  060%=      5-min Rain = 0
KMC1 130321Z 08003KT 21/13 A299 RMK A01 T02070127  RH  060%=      5-min Rain = 0
KMC1 130322Z 08004KT 21/12 A299 RMK A01 T02060124  RH  059%=      5-min Rain = 0
KMC1 130323Z 08004KT 21/12 A299 RMK A01 T02050124  RH  059%=      5-min Rain = 0
KMC1 130324Z 09004KT 21/12 A299 RMK A01 T02050123  RH  059%=      5-min Rain = 0
KMC1 130325Z 10004KT 21/12 A299 RMK A01 T02050121  RH  059%=      5-min Rain = 0
KMC1 130326Z 09004KT 21/12 A299 RMK A01 T02050121  RH  058%=      5-min Rain = 0
KMC1 130327Z 10005KT 21/12 A299 RMK A01 T02050120  RH  058%=      5-min Rain = 0
KMC1 130328Z 10005KT 21/12 A299 RMK A01 T02060119  RH  057%=      5-min Rain = 0
KMC1 130329Z 10006KT 21/12 A299 RMK A01 T02070119  RH  057%=      5-min Rain = 0
KMC1 130330Z 10006KT 21/12 A299 RMK A01 T02080119  RH  057%=      5-min Rain = 0
KMC1 130331Z 10005KT 21/12 A299 RMK A01 T02090119  RH  056%=      5-min Rain = 0
KMC1 130332Z 10004KT 21/12 A299 RMK A01 T02090118  RH  056%=      5-min Rain = 0
KMC1 130333Z 10004KT 21/12 A299 RMK A01 T02100118  RH  055%=      5-min Rain = 0
KMC1 130334Z 10004KT 21/12 A299 RMK A01 T02100117  RH  055%=      5-min Rain = 0
KMC1 130335Z 10004KT 21/12 A299 RMK A01 T02110116  RH  055%=      5-min Rain = 0
KMC1 130336Z 10004KT 21/12 A299 RMK A01 T02100116  RH  055%=      5-min Rain = 0
KMC1 130337Z 10004KT 21/12 A299 RMK A01 T02110115  RH  054%=      5-min Rain = 0
KMC1 130338Z 10004KT 21/11 A299 RMK A01 T02110114  RH  054%=      5-min Rain = 0
KMC1 130339Z 10003KT 21/11 A299 RMK A01 T02120114  RH  054%=      5-min Rain = 0
KMC1 130340Z 10003KT 21/11 A299 RMK A01 T02120112  RH  053%=      5-min Rain = 0
KMC1 130341Z 10003KT 21/11 A299 RMK A01 T02120112  RH  053%=      5-min Rain = 0
KMC1 130342Z 10003KT 21/11 A299 RMK A01 T02130111  RH  052%=      5-min Rain = 0
KMC1 130343Z 10003KT 21/11 A299 RMK A01 T02140111  RH  052%=      5-min Rain = 0
KMC1 130344Z 10003KT 21/11 A299 RMK A01 T02140111  RH  052%=      5-min Rain = 0
KMC1 130345Z 09002KT 22/11 A299 RMK A01 T02150111  RH  051%=      5-min Rain = 0
KMC1 130346Z 09002KT 22/12 A299 RMK A01 T02150119  RH  054%=      5-min Rain = 0
KMC1 130347Z 09001KT 21/12 A299 RMK A01 T02120123  RH  057%=      5-min Rain = 0
KMC1 130348Z 11001KT 21/12 A299 RMK A01 T02090122  RH  057%=      5-min Rain = 0
KMC1 130349Z 11000KT 21/12 A299 RMK A01 T02070120  RH  058%=      5-min Rain = 0
KMC1 130350Z 00000KT 21/12 A299 RMK A01 T02050120  RH  058%=      5-min Rain = 0
KMC1 130351Z 23000KT 20/12 A299 RMK A01 T02040120  RH  058%=      5-min Rain = 0
KMC1 130352Z 23000KT 20/12 A299 RMK A01 T02030120  RH  059%=      5-min Rain = 0
KMC1 130353Z 00000KT 20/12 A299 RMK A01 T02020119  RH  059%=      5-min Rain = 0
KMC1 130354Z 00000KT 20/12 A299 RMK A01 T02020119  RH  059%=      5-min Rain = 0
KMC1 130355Z 00000KT 20/12 A2991 RMK A01 T02020117  RH  058%=      5-min Rain = 0
KMC1 130356Z 23001KT 20/12 A2991 RMK A01 T02020117  RH  058%=      5-min Rain = 0
KMC1 130357Z 23002KT 20/12 A2991 RMK A01 T02020115  RH  057%=      5-min Rain = 0
KMC1 130358Z 24002KT 20/12 A299 RMK A01 T02020115  RH  057%=      5-min Rain = 0
KMC1 130359Z 23002KT 20/12 A299 RMK A01 T02020117  RH  058%=      5-min Rain = 0
KMC1 130400Z 23001KT 20/12 A299 RMK A01 T02010115  RH  057%=      5-min Rain = 0
KMC1 130401Z 23001KT 20/12 A299 RMK A01 T02010116  RH  058%=      5-min Rain = 0
KMC1 130402Z 23001KT 20/12 A299 RMK A01 T02010115  RH  058%=      5-min Rain = 0
KMC1 130403Z 23001KT 20/12 A299 RMK A01 T02000115  RH  058%=      5-min Rain = 0
KMC1 130404Z 23001KT 20/12 A299 RMK A01 T01990115  RH  058%=      5-min Rain = 0
KMC1 130405Z 23001KT 20/11 A299 RMK A01 T01990114  RH  058%=      5-min Rain = 0
KMC1 130406Z 23001KT 20/11 A299 RMK A01 T01990114  RH  058%=      5-min Rain = 0
KMC1 130407Z 24001KT 20/11 A299 RMK A01 T01980114  RH  058%=      5-min Rain = 0
KMC1 130408Z 24001KT 20/11 A299 RMK A01 T01980114  RH  058%=      5-min Rain = 0
KMC1 130409Z 25001KT 20/11 A299 RMK A01 T01980114  RH  058%=      5-min Rain = 0
KMC1 130410Z 24001KT 20/11 A299 RMK A01 T01970114  RH  059%=      5-min Rain = 0
KMC1 130411Z 24001KT 20/11 A299 RMK A01 T01970114  RH  059%=      5-min Rain = 0
KMC1 130412Z 24001KT 20/11 A299 RMK A01 T01970114  RH  059%=      5-min Rain = 0
KMC1 130413Z 24001KT 20/11 A299 RMK A01 T01960114  RH  059%=      5-min Rain = 0
KMC1 130414Z 25001KT 20/11 A299 RMK A01 T01960114  RH  059%=      5-min Rain = 0
KMC1 130415Z 22001KT 20/12 A299 RMK A01 T01960115  RH  060%=      5-min Rain = 0
KMC1 130416Z 12000KT 20/11 A299 RMK A01 T01950114  RH  060%=      5-min Rain = 0
KMC1 130417Z 16000KT 20/12 A299 RMK A01 T01950115  RH  060%=      5-min Rain = 0
KMC1 130418Z 16000KT 20/12 A299 RMK A01 T01950116  RH  060%=      5-min Rain = 0
KMC1 130419Z 13001KT 20/12 A299 RMK A01 T01950115  RH  060%=      5-min Rain = 0
KMC1 130420Z 14000KT 20/12 A299 RMK A01 T01950116  RH  060%=      5-min Rain = 0
KMC1 130421Z 13000KT 20/12 A299 RMK A01 T01950117  RH  061%=      5-min Rain = 0
KMC1 130422Z 11001KT 19/12 A299 RMK A01 T01940116  RH  060%=      5-min Rain = 0
KMC1 130423Z 11001KT 19/12 A299 RMK A01 T01940116  RH  060%=      5-min Rain = 0
KMC1 130424Z 07000KT 19/12 A299 RMK A01 T01940117  RH  061%=      5-min Rain = 0
KMC1 130425Z 05000KT 19/12 A299 RMK A01 T01940116  RH  061%=      5-min Rain = 0
KMC1 130426Z 05000KT 19/11 A299 RMK A01 T01930114  RH  060%=      5-min Rain = 0
KMC1 130427Z 06000KT 19/11 A299 RMK A01 T01930114  RH  060%=      5-min Rain = 0
KMC1 130428Z 01000KT 19/12 A299 RMK A01 T01930115  RH  060%=      5-min Rain = 0
KMC1 130429Z 05000KT 19/12 A299 RMK A01 T01930115  RH  061%=      5-min Rain = 0
KMC1 130430Z 06001KT 19/12 A299 RMK A01 T01930115  RH  060%=      5-min Rain = 0
KMC1 130431Z 09000KT 19/11 A299 RMK A01 T01930114  RH  060%=      5-min Rain = 0
KMC1 130432Z 08001KT 19/12 A299 RMK A01 T01930115  RH  061%=      5-min Rain = 0
KMC1 130433Z 07001KT 19/12 A299 RMK A01 T01930116  RH  061%=      5-min Rain = 0
KMC1 130434Z 06000KT 19/12 A299 RMK A01 T01930116  RH  061%=      5-min Rain = 0
KMC1 130435Z 07000KT 19/12 A299 RMK A01 T01920116  RH  061%=      5-min Rain = 0
KMC1 130436Z 00000KT 19/12 A299 RMK A01 T01920116  RH  061%=      5-min Rain = 0
KMC1 130437Z 29000KT 19/12 A299 RMK A01 T01920116  RH  062%=      5-min Rain = 0
KMC1 130438Z 29001KT 19/12 A299 RMK A01 T01910118  RH  062%=      5-min Rain = 0
KMC1 130439Z 28002KT 19/12 A299 RMK A01 T01910119  RH  063%=      5-min Rain = 0
KMC1 130440Z 28002KT 19/12 A299 RMK A01 T01900119  RH  064%=      5-min Rain = 0
KMC1 130441Z 29002KT 19/12 A299 RMK A01 T01890119  RH  064%=      5-min Rain = 0
KMC1 130442Z 29001KT 19/12 A299 RMK A01 T01880118  RH  064%=      5-min Rain = 0
KMC1 130443Z 32001KT 19/12 A299 RMK A01 T01880116  RH  063%=      5-min Rain = 0
KMC1 130444Z 33000KT 19/12 A299 RMK A01 T01880115  RH  063%=      5-min Rain = 0
KMC1 130445Z 34000KT 19/12 A299 RMK A01 T01870116  RH  063%=      5-min Rain = 0
KMC1 130446Z 35000KT 19/12 A299 RMK A01 T01870116  RH  063%=      5-min Rain = 0
KMC1 130447Z 33001KT 19/12 A299 RMK A01 T01870115  RH  063%=      5-min Rain = 0
KMC1 130448Z 29001KT 19/12 A299 RMK A01 T01870116  RH  063%=      5-min Rain = 0
KMC1 130449Z 28002KT 19/12 A299 RMK A01 T01870116  RH  063%=      5-min Rain = 0
KMC1 130450Z 28001KT 19/12 A299 RMK A01 T01870115  RH  063%=      5-min Rain = 0
KMC1 130451Z 28002KT 19/12 A299 RMK A01 T01860115  RH  063%=      5-min Rain = 0
KMC1 130452Z 28001KT 19/11 A299 RMK A01 T01860114  RH  063%=      5-min Rain = 0
KMC1 130453Z 28001KT 19/12 A299 RMK A01 T01870116  RH  064%=      5-min Rain = 0
KMC1 130454Z 29001KT 19/12 A299 RMK A01 T01860116  RH  064%=      5-min Rain = 0
KMC1 130455Z 28001KT 19/12 A299 RMK A01 T01860116  RH  064%=      5-min Rain = 0
KMC1 130456Z 29001KT 19/12 A299 RMK A01 T01850116  RH  064%=      5-min Rain = 0
KMC1 130457Z 28001KT 19/12 A299 RMK A01 T01850116  RH  064%=      5-min Rain = 0
KMC1 130458Z 32001KT 19/12 A299 RMK A01 T01850116  RH  064%=      5-min Rain = 0
KMC1 130459Z 32001KT 19/12 A299 RMK A01 T01850115  RH  064%=      5-min Rain = 0

Page generated in 0.033 seconds.